Time,TemperatureF,DewpointF,PressureIn,WindDirection,WindDirectionDegrees,WindSpeedMPH,WindSpeedGustMPH,Humidity,HourlyPrecipIn,Conditions,Clouds,dailyrainin,SoftwareType,DateUTC
2013-02-05 00:00:00,41.8,23.6,30.01,NNE,16,0.0,1.0,48,0.00,,SKC,0.00,VWS V14.01,2013-02-05 05:00:00,
2013-02-05 00:05:00,41.8,24.5,30.01,ESE,105,5.0,5.0,50,0.00,,SKC,0.00,VWS V14.01,2013-02-05 05:05:00,
2013-02-05 00:10:00,42.2,22.9,30.01,NNW,347,4.0,4.0,46,0.00,,SKC,0.00,VWS V14.01,2013-02-05 05:10:00,
2013-02-05 00:15:00,42.8,23.5,30.01,NNW,346,5.0,5.0,46,0.00,,SKC,0.00,VWS V14.01,2013-02-05 05:15:00,
2013-02-05 00:20:00,42.4,24.1,30.01,NNW,340,2.0,2.0,48,0.00,,SKC,0.00,VWS V14.01,2013-02-05 05:20:00,
2013-02-05 00:25:00,42.0,23.8,30.01,NNW,340,0.0,0.0,48,0.00,,SKC,0.00,VWS V14.01,2013-02-05 05:25:00,
2013-02-05 00:30:00,41.3,25.0,30.00,WNW,284,2.0,3.0,52,0.00,,SKC,0.00,VWS V14.01,2013-02-05 05:30:00,
2013-02-05 00:35:00,40.7,24.5,30.00,WNW,292,1.0,1.0,52,0.00,,SKC,0.00,VWS V14.01,2013-02-05 05:35:00,
2013-02-05 00:40:00,40.2,23.5,30.00,WNW,292,1.0,2.0,51,0.00,,SKC,0.00,VWS V14.01,2013-02-05 05:40:00,
2013-02-05 00:45:00,39.9,24.6,30.00,WNW,291,0.0,0.0,54,0.00,,SKC,0.00,VWS V14.01,2013-02-05 05:45:00,
2013-02-05 00:50:00,39.6,23.9,30.00,WNW,292,2.0,4.0,53,0.00,,SKC,0.00,VWS V14.01,2013-02-05 05:50:00,
2013-02-05 00:55:00,38.8,25.3,30.00,WNW,292,0.0,3.0,58,0.00,,SKC,0.00,VWS V14.01,2013-02-05 05:55:00,
2013-02-05 01:00:00,37.8,24.8,30.00,WNW,293,1.0,3.0,59,0.00,,SKC,0.00,VWS V14.01,2013-02-05 06:00:00,
2013-02-05 01:05:00,37.5,24.5,30.00,WNW,293,0.0,2.0,59,0.00,,SKC,0.00,VWS V14.01,2013-02-05 06:05:00,
2013-02-05 01:10:00,37.6,23.8,30.00,NNW,330,5.0,5.0,57,0.00,,SKC,0.00,VWS V14.01,2013-02-05 06:10:00,
2013-02-05 01:15:00,37.9,24.0,29.99,NNW,330,1.0,1.0,57,0.00,,SKC,0.00,VWS V14.01,2013-02-05 06:15:00,
2013-02-05 01:20:00,37.8,24.4,29.99,NNW,330,1.0,1.0,58,0.00,,SKC,0.00,VWS V14.01,2013-02-05 06:20:00,
2013-02-05 01:25:00,36.8,23.4,29.99,NNW,330,2.0,5.0,58,0.00,,SKC,0.00,VWS V14.01,2013-02-05 06:25:00,
2013-02-05 01:30:00,36.0,24.6,29.99,NNW,330,0.0,0.0,63,0.00,,SKC,0.00,VWS V14.01,2013-02-05 06:30:00,
2013-02-05 01:35:00,35.3,24.0,29.99,NNW,330,0.0,2.0,63,0.00,,SKC,0.00,VWS V14.01,2013-02-05 06:35:00,
2013-02-05 01:40:00,35.0,24.1,29.99,NNW,330,0.0,0.0,64,0.00,,SKC,0.00,VWS V14.01,2013-02-05 06:40:00,
2013-02-05 01:45:00,34.7,24.1,29.99,NNW,330,0.0,0.0,65,0.00,,SKC,0.00,VWS V14.01,2013-02-05 06:45:00,
2013-02-05 01:50:00,34.4,24.2,29.99,NNW,330,0.0,1.0,66,0.00,,SKC,0.00,VWS V14.01,2013-02-05 06:50:00,
2013-02-05 01:55:00,33.9,24.5,29.99,NNW,330,0.0,0.0,68,0.00,,SKC,0.00,VWS V14.01,2013-02-05 06:55:00,
2013-02-05 02:00:00,33.3,24.2,29.99,NNW,330,0.0,0.0,69,0.00,,SKC,0.00,VWS V14.01,2013-02-05 07:00:00,
2013-02-05 02:05:00,32.9,24.2,29.99,NNW,330,0.0,0.0,70,0.00,,SKC,0.00,VWS V14.01,2013-02-05 07:05:00,
2013-02-05 02:10:00,32.5,24.2,29.99,NNW,330,1.0,2.0,71,0.00,,SKC,0.00,VWS V14.01,2013-02-05 07:10:00,
2013-02-05 02:15:00,32.6,23.6,29.98,NNW,330,0.0,1.0,69,0.00,,SKC,0.00,VWS V14.01,2013-02-05 07:15:00,
2013-02-05 02:20:00,32.5,24.2,29.98,NNW,330,0.0,0.0,71,0.00,,SKC,0.00,VWS V14.01,2013-02-05 07:20:00,
2013-02-05 02:25:00,32.4,24.1,29.98,NNW,330,1.0,1.0,71,0.00,,SKC,0.00,VWS V14.01,2013-02-05 07:25:00,
2013-02-05 02:30:00,32.4,24.1,29.98,NNW,330,0.0,0.0,71,0.00,,SKC,0.00,VWS V14.01,2013-02-05 07:30:00,
2013-02-05 02:35:00,32.5,24.2,29.98,NNW,330,0.0,0.0,71,0.00,,SKC,0.00,VWS V14.01,2013-02-05 07:35:00,
2013-02-05 02:40:00,32.4,24.1,29.98,NNW,330,0.0,0.0,71,0.00,,SKC,0.00,VWS V14.01,2013-02-05 07:40:00,
2013-02-05 02:45:00,32.5,24.2,29.98,NNW,330,0.0,2.0,71,0.00,,SKC,0.00,VWS V14.01,2013-02-05 07:45:00,
2013-02-05 02:50:00,32.9,24.5,30.02,NNW,330,0.0,0.0,71,0.00,,SKC,0.00,VWS V14.01,2013-02-05 07:50:00,
2013-02-05 02:55:00,32.9,24.5,30.02,NNW,330,0.0,0.0,71,0.00,,SKC,0.00,VWS V14.01,2013-02-05 07:55:00,
2013-02-05 03:00:00,32.8,24.5,30.02,NNW,330,0.0,0.0,71,0.00,,SKC,0.00,VWS V14.01,2013-02-05 08:00:00,
2013-02-05 03:05:00,32.8,24.8,30.02,NNW,330,0.0,0.0,72,0.00,,SKC,0.00,VWS V14.01,2013-02-05 08:05:00,
2013-02-05 03:10:00,32.7,24.7,30.01,NNW,330,0.0,0.0,72,0.00,,SKC,0.00,VWS V14.01,2013-02-05 08:10:00,
2013-02-05 03:15:00,33.0,24.3,30.02,NNW,330,0.0,0.0,70,0.00,,SKC,0.00,VWS V14.01,2013-02-05 08:15:00,
2013-02-05 03:20:00,33.5,24.8,30.02,NNW,330,0.0,0.0,70,0.00,,SKC,0.00,VWS V14.01,2013-02-05 08:20:00,
2013-02-05 03:25:00,33.7,24.6,30.02,NNW,330,0.0,0.0,69,0.00,,SKC,0.00,VWS V14.01,2013-02-05 08:25:00,
2013-02-05 03:30:00,33.9,24.8,30.01,NNW,330,0.0,0.0,69,0.00,,SKC,0.00,VWS V14.01,2013-02-05 08:30:00,
2013-02-05 03:35:00,34.1,25.7,30.01,NNW,330,0.0,0.0,71,0.00,,SKC,0.00,VWS V14.01,2013-02-05 08:35:00,
2013-02-05 03:40:00,34.3,25.2,30.00,NNW,330,0.0,0.0,69,0.00,,SKC,0.00,VWS V14.01,2013-02-05 08:40:00,
2013-02-05 03:44:00,34.4,25.3,30.01,NNW,330,0.0,0.0,69,0.00,,SKC,0.00,VWS V14.01,2013-02-05 08:44:00,
2013-02-05 03:49:00,34.7,25.2,30.00,NNW,330,0.0,0.0,68,0.00,,SKC,0.00,VWS V14.01,2013-02-05 08:49:00,
2013-02-05 03:54:00,34.9,26.1,30.01,NNW,330,0.0,0.0,70,0.00,,SKC,0.00,VWS V14.01,2013-02-05 08:54:00,
2013-02-05 03:59:00,35.0,25.9,30.01,NNW,330,0.0,0.0,69,0.00,,SKC,0.00,VWS V14.01,2013-02-05 08:59:00,
2013-02-05 04:04:00,35.3,25.8,30.00,NNW,330,0.0,0.0,68,0.00,,SKC,0.00,VWS V14.01,2013-02-05 09:04:00,
2013-02-05 04:09:00,35.6,26.1,30.00,NNW,330,0.0,0.0,68,0.00,,SKC,0.00,VWS V14.01,2013-02-05 09:09:00,
2013-02-05 04:14:00,35.8,25.9,30.01,NNW,330,0.0,0.0,67,0.00,,SKC,0.00,VWS V14.01,2013-02-05 09:14:00,
2013-02-05 04:19:00,36.2,26.0,30.01,NNW,330,0.0,0.0,66,0.00,,SKC,0.00,VWS V14.01,2013-02-05 09:19:00,
2013-02-05 04:24:00,36.4,25.8,30.01,NNW,330,0.0,0.0,65,0.00,,SKC,0.00,VWS V14.01,2013-02-05 09:24:00,
2013-02-05 04:29:00,36.7,24.9,30.01,NNW,330,0.0,0.0,62,0.00,,SKC,0.00,VWS V14.01,2013-02-05 09:29:00,
2013-02-05 04:34:00,37.1,25.3,30.01,NNW,330,1.0,3.0,62,0.00,,SKC,0.00,VWS V14.01,2013-02-05 09:34:00,
2013-02-05 04:39:00,37.5,24.9,30.01,NNW,330,0.0,1.0,60,0.00,,SKC,0.00,VWS V14.01,2013-02-05 09:39:00,
2013-02-05 04:44:00,37.5,26.1,30.02,NNW,330,0.0,0.0,63,0.00,,SKC,0.00,VWS V14.01,2013-02-05 09:44:00,
2013-02-05 04:49:00,37.4,25.6,30.02,NNW,330,0.0,0.0,62,0.00,,SKC,0.00,VWS V14.01,2013-02-05 09:49:00,
2013-02-05 04:54:00,37.4,26.0,30.02,NNW,330,0.0,0.0,63,0.00,,SKC,0.00,VWS V14.01,2013-02-05 09:54:00,
2013-02-05 04:59:00,37.4,26.0,30.02,NNW,330,0.0,2.0,63,0.00,,SKC,0.00,VWS V14.01,2013-02-05 09:59:00,
2013-02-05 05:04:00,37.5,26.5,30.02,NNW,330,0.0,0.0,64,0.00,,SKC,0.00,VWS V14.01,2013-02-05 10:04:00,
2013-02-05 05:09:00,37.6,25.0,30.01,NNW,330,1.0,1.0,60,0.00,,SKC,0.00,VWS V14.01,2013-02-05 10:09:00,
2013-02-05 05:14:00,37.7,26.3,30.01,NNW,330,0.0,0.0,63,0.00,,SKC,0.00,VWS V14.01,2013-02-05 10:14:00,
2013-02-05 05:19:00,37.7,25.5,30.01,NNW,330,0.0,0.0,61,0.00,,SKC,0.00,VWS V14.01,2013-02-05 10:19:00,
2013-02-05 05:24:00,37.7,26.6,30.01,NNW,330,0.0,0.0,64,0.00,,SKC,0.00,VWS V14.01,2013-02-05 10:24:00,
2013-02-05 05:29:00,37.7,26.6,30.01,NNW,330,0.0,0.0,64,0.00,,SKC,0.00,VWS V14.01,2013-02-05 10:29:00,
2013-02-05 05:34:00,37.7,27.4,30.01,NNW,330,0.0,0.0,66,0.00,,SKC,0.00,VWS V14.01,2013-02-05 10:34:00,
2013-02-05 05:39:00,37.5,27.5,30.01,NNW,330,0.0,0.0,67,0.00,,SKC,0.00,VWS V14.01,2013-02-05 10:39:00,
2013-02-05 05:44:00,37.3,27.7,30.01,NNW,330,0.0,0.0,68,0.00,,SKC,0.00,VWS V14.01,2013-02-05 10:44:00,
2013-02-05 05:49:00,37.2,27.6,30.02,NNW,330,0.0,0.0,68,0.00,,SKC,0.00,VWS V14.01,2013-02-05 10:49:00,
2013-02-05 05:54:00,37.4,27.8,30.01,NW,326,0.0,1.0,68,0.00,,SKC,0.00,VWS V14.01,2013-02-05 10:54:00,
2013-02-05 05:59:00,37.8,27.5,30.01,NW,326,0.0,0.0,66,0.00,,SKC,0.00,VWS V14.01,2013-02-05 10:59:00,
2013-02-05 06:04:00,38.4,26.5,30.00,NW,326,2.0,2.0,62,0.00,,SKC,0.00,VWS V14.01,2013-02-05 11:04:00,
2013-02-05 06:09:00,39.2,28.1,30.00,NW,326,0.0,0.0,64,0.00,,SKC,0.00,VWS V14.01,2013-02-05 11:09:00,
2013-02-05 06:14:00,39.1,28.7,30.00,NNW,327,3.0,3.0,66,0.00,,SKC,0.00,VWS V14.01,2013-02-05 11:14:00,
2013-02-05 06:19:00,39.3,28.2,30.01,NW,326,1.0,1.0,64,0.00,,SKC,0.00,VWS V14.01,2013-02-05 11:19:00,
2013-02-05 06:24:00,39.7,27.8,30.01,WSW,242,3.0,3.0,62,0.00,,SKC,0.00,VWS V14.01,2013-02-05 11:24:00,
2013-02-05 06:29:00,40.0,27.6,30.01,West,277,1.0,2.0,61,0.00,,SKC,0.00,VWS V14.01,2013-02-05 11:29:00,
2013-02-05 06:34:00,40.3,27.1,30.01,WNW,288,2.0,2.0,59,0.00,,SKC,0.00,VWS V14.01,2013-02-05 11:34:00,
2013-02-05 06:39:00,40.1,26.9,30.01,NNW,348,2.0,5.0,59,0.00,,SKC,0.00,VWS V14.01,2013-02-05 11:39:00,
2013-02-05 06:44:00,40.6,27.0,30.01,NE,51,3.0,5.0,58,0.00,,SKC,0.00,VWS V14.01,2013-02-05 11:44:00,
2013-02-05 06:49:00,41.0,27.0,30.02,NNE,19,0.0,0.0,57,0.00,,SKC,0.00,VWS V14.01,2013-02-05 11:49:00,
2013-02-05 06:54:00,41.2,27.6,30.02,NNE,28,3.0,4.0,58,0.00,,SKC,0.00,VWS V14.01,2013-02-05 11:54:00,
2013-02-05 06:59:00,41.3,27.6,30.02,NNE,13,3.0,3.0,58,0.00,,SKC,0.00,VWS V14.01,2013-02-05 11:59:00,
2013-02-05 07:04:00,41.5,27.8,30.02,NE,52,2.0,4.0,58,0.00,,SKC,0.00,VWS V14.01,2013-02-05 12:04:00,
2013-02-05 07:09:00,41.5,27.8,30.02,NE,36,4.0,4.0,58,0.00,,SKC,0.00,VWS V14.01,2013-02-05 12:09:00,
2013-02-05 07:14:00,41.6,28.8,30.02,North,355,0.0,0.0,60,0.00,,SKC,0.00,VWS V14.01,2013-02-05 12:14:00,
2013-02-05 07:19:00,41.5,29.1,30.02,East,95,0.0,0.0,61,0.00,,SKC,0.00,VWS V14.01,2013-02-05 12:19:00,
2013-02-05 07:24:00,41.5,29.5,30.02,WSW,255,5.0,5.0,62,0.00,,SKC,0.00,VWS V14.01,2013-02-05 12:24:00,
2013-02-05 07:29:00,41.5,29.9,30.02,NNW,337,3.0,5.0,63,0.00,,SKC,0.00,VWS V14.01,2013-02-05 12:29:00,
2013-02-05 07:34:00,41.5,30.2,30.02,West,280,3.0,8.0,64,0.00,,SKC,0.00,VWS V14.01,2013-02-05 12:34:00,
2013-02-05 07:39:00,41.4,30.1,30.02,North,360,1.0,3.0,64,0.00,,SKC,0.00,VWS V14.01,2013-02-05 12:39:00,
2013-02-05 07:44:00,41.1,29.9,30.03,North,360,0.0,2.0,64,0.00,,SKC,0.00,VWS V14.01,2013-02-05 12:44:00,
2013-02-05 07:49:00,40.8,29.6,30.02,North,360,0.0,2.0,64,0.00,,SKC,0.00,VWS V14.01,2013-02-05 12:49:00,
2013-02-05 07:54:00,40.4,29.6,30.02,North,360,1.0,1.0,65,0.00,,SKC,0.00,VWS V14.01,2013-02-05 12:54:00,
2013-02-05 07:59:00,40.1,29.7,30.03,NNW,346,1.0,1.0,66,0.00,,SKC,0.00,VWS V14.01,2013-02-05 12:59:00,
2013-02-05 08:04:00,40.0,29.9,30.04,NNW,346,0.0,1.0,67,0.00,,SKC,0.00,VWS V14.01,2013-02-05 13:04:00,
2013-02-05 08:09:00,39.7,29.7,30.04,NNW,333,0.0,0.0,67,0.00,,SKC,0.00,VWS V14.01,2013-02-05 13:09:00,
2013-02-05 08:14:00,39.7,30.0,30.03,NNW,333,0.0,1.0,68,0.00,,SKC,0.00,VWS V14.01,2013-02-05 13:14:00,
2013-02-05 08:19:00,39.7,30.4,30.03,NNE,14,2.0,4.0,69,0.00,,SKC,0.00,VWS V14.01,2013-02-05 13:19:00,
2013-02-05 08:24:00,39.8,30.5,30.03,NNE,14,1.0,5.0,69,0.00,,SKC,0.00,VWS V14.01,2013-02-05 13:24:00,
2013-02-05 08:29:00,40.0,30.3,30.03,NNE,14,3.0,4.0,68,0.00,,SKC,0.00,VWS V14.01,2013-02-05 13:29:00,
2013-02-05 08:34:00,40.0,30.3,30.03,NNE,14,2.0,4.0,68,0.00,,SKC,0.00,VWS V14.01,2013-02-05 13:34:00,
2013-02-05 08:39:00,40.1,30.4,30.03,NNE,14,0.0,3.0,68,0.00,,SKC,0.00,VWS V14.01,2013-02-05 13:39:00,
2013-02-05 08:44:00,40.1,30.8,30.03,NNE,13,1.0,1.0,69,0.00,,SKC,0.00,VWS V14.01,2013-02-05 13:44:00,
2013-02-05 08:49:00,40.2,31.2,30.03,NW,315,2.0,2.0,70,0.00,,SKC,0.00,VWS V14.01,2013-02-05 13:49:00,
2013-02-05 08:54:00,40.2,31.2,30.03,NW,317,4.0,4.0,70,0.00,,SKC,0.00,VWS V14.01,2013-02-05 13:54:00,
2013-02-05 08:59:00,40.3,31.3,30.03,NW,322,5.0,5.0,70,0.00,,SKC,0.00,VWS V14.01,2013-02-05 13:59:00,
2013-02-05 09:04:00,40.4,31.4,30.03,NW,322,1.0,3.0,70,0.00,,SKC,0.00,VWS V14.01,2013-02-05 14:04:00,
2013-02-05 09:09:00,40.5,31.9,30.03,North,355,3.0,4.0,71,0.00,,SKC,0.00,VWS V14.01,2013-02-05 14:09:00,
2013-02-05 09:14:00,40.6,31.6,30.03,North,355,2.0,2.0,70,0.00,,SKC,0.00,VWS V14.01,2013-02-05 14:14:00,
2013-02-05 09:19:00,40.6,31.6,30.03,NNE,33,0.0,4.0,70,0.00,,SKC,0.00,VWS V14.01,2013-02-05 14:19:00,
2013-02-05 09:24:00,40.7,32.0,30.03,North,355,3.0,6.0,71,0.00,,SKC,0.00,VWS V14.01,2013-02-05 14:24:00,
2013-02-05 09:29:00,40.6,32.0,30.03,North,355,0.0,1.0,71,0.00,,SKC,0.00,VWS V14.01,2013-02-05 14:29:00,
2013-02-05 09:34:00,40.6,32.6,30.03,North,355,4.0,4.0,73,0.00,,SKC,0.00,VWS V14.01,2013-02-05 14:34:00,
2013-02-05 09:39:00,40.8,32.8,30.03,North,355,3.0,4.0,73,0.00,,SKC,0.00,VWS V14.01,2013-02-05 14:39:00,
2013-02-05 09:44:00,40.9,32.9,30.03,NNE,13,7.0,7.0,73,0.00,,SKC,0.00,VWS V14.01,2013-02-05 14:44:00,
2013-02-05 09:49:00,40.9,33.3,30.03,NNE,15,2.0,4.0,74,0.00,,SKC,0.00,VWS V14.01,2013-02-05 14:49:00,
2013-02-05 09:54:00,40.8,32.8,30.03,North,360,0.0,0.0,73,0.00,,SKC,0.00,VWS V14.01,2013-02-05 14:54:00,
2013-02-05 09:59:00,40.9,33.3,30.03,North,360,0.0,0.0,74,0.00,,SKC,0.00,VWS V14.01,2013-02-05 14:59:00,
2013-02-05 10:04:00,41.0,34.7,30.03,North,351,0.0,2.0,78,0.00,,SKC,0.00,VWS V14.01,2013-02-05 15:04:00,
2013-02-05 10:09:00,41.0,33.4,30.03,North,10,2.0,4.0,74,0.00,,SKC,0.00,VWS V14.01,2013-02-05 15:09:00,
2013-02-05 10:14:00,40.9,33.3,30.03,NNE,24,2.0,4.0,74,0.00,,SKC,0.00,VWS V14.01,2013-02-05 15:14:00,
2013-02-05 10:19:00,40.9,33.6,30.04,NNE,24,1.0,2.0,75,0.00,,SKC,0.00,VWS V14.01,2013-02-05 15:19:00,
2013-02-05 10:24:00,41.0,34.0,30.04,NE,34,4.0,5.0,76,0.00,,SKC,0.00,VWS V14.01,2013-02-05 15:24:00,
2013-02-05 10:29:00,40.9,33.9,30.04,North,5,0.0,0.0,76,0.00,,SKC,0.00,VWS V14.01,2013-02-05 15:29:00,
2013-02-05 10:34:00,40.9,33.9,30.04,NE,46,2.0,2.0,76,0.00,,SKC,0.00,VWS V14.01,2013-02-05 15:34:00,
2013-02-05 10:39:00,40.9,34.3,30.04,NE,45,3.0,3.0,77,0.00,,SKC,0.00,VWS V14.01,2013-02-05 15:39:00,
2013-02-05 10:44:00,40.9,34.3,30.04,NNE,33,1.0,1.0,77,0.00,,SKC,0.00,VWS V14.01,2013-02-05 15:44:00,
2013-02-05 10:49:00,40.9,34.3,30.05,NNE,33,0.0,0.0,77,0.00,,SKC,0.00,VWS V14.01,2013-02-05 15:49:00,
2013-02-05 10:54:00,40.9,34.3,30.05,NE,34,1.0,1.0,77,0.00,,SKC,0.00,VWS V14.01,2013-02-05 15:54:00,
2013-02-05 10:58:00,40.9,34.6,30.05,NNE,15,4.0,4.0,78,0.00,,SKC,0.00,VWS V14.01,2013-02-05 15:58:00,
2013-02-05 11:04:00,41.0,34.7,30.05,North,360,3.0,3.0,78,0.00,,SKC,0.00,VWS V14.01,2013-02-05 16:04:00,
2013-02-05 11:09:00,41.0,35.0,30.05,NNE,13,3.0,3.0,79,0.00,,SKC,0.00,VWS V14.01,2013-02-05 16:09:00,
2013-02-05 11:14:00,41.0,35.0,30.05,NNE,13,2.0,2.0,79,0.00,,SKC,0.00,VWS V14.01,2013-02-05 16:14:00,
2013-02-05 11:19:00,41.1,35.1,30.05,NNE,13,1.0,1.0,79,0.00,,SKC,0.00,VWS V14.01,2013-02-05 16:19:00,
2013-02-05 11:23:00,41.1,35.1,30.05,NNE,13,0.0,0.0,79,0.00,,SKC,0.00,VWS V14.01,2013-02-05 16:23:00,
2013-02-05 11:28:00,41.4,35.4,30.05,NNE,12,0.0,1.0,79,0.00,,SKC,0.00,VWS V14.01,2013-02-05 16:28:00,
2013-02-05 11:33:00,41.8,35.8,30.05,NNE,12,0.0,0.0,79,0.00,,SKC,0.00,VWS V14.01,2013-02-05 16:33:00,
2013-02-05 11:38:00,42.5,36.1,30.04,NNE,12,0.0,2.0,78,0.00,,SKC,0.00,VWS V14.01,2013-02-05 16:38:00,
2013-02-05 11:43:00,43.1,36.7,30.05,NNE,13,3.0,3.0,78,0.00,,SKC,0.00,VWS V14.01,2013-02-05 16:43:00,
2013-02-05 11:48:00,43.6,36.9,30.05,NNE,22,4.0,5.0,77,0.00,,SKC,0.00,VWS V14.01,2013-02-05 16:48:00,
2013-02-05 11:53:00,44.5,37.1,30.05,NNE,26,3.0,3.0,75,0.00,,SKC,0.00,VWS V14.01,2013-02-05 16:53:00,
2013-02-05 11:58:00,45.6,37.5,30.04,North,5,5.0,9.0,73,0.00,,SKC,0.00,VWS V14.01,2013-02-05 16:58:00,
2013-02-05 12:03:00,46.7,37.8,30.04,SSE,157,2.0,6.0,71,0.00,,SKC,0.00,VWS V14.01,2013-02-05 17:03:00,
2013-02-05 12:08:00,46.9,37.3,30.04,NNW,336,1.0,2.0,69,0.00,,SKC,0.00,VWS V14.01,2013-02-05 17:08:00,
2013-02-05 12:13:00,47.4,37.4,30.03,North,5,1.0,1.0,68,0.00,,SKC,0.00,VWS V14.01,2013-02-05 17:13:00,
2013-02-05 12:19:00,47.7,37.3,29.96,SW,229,5.0,5.0,67,0.00,,SKC,0.00,VWS V14.01,2013-02-05 17:19:00,
2013-02-05 12:20:00,47.7,37.3,29.96,SW,229,5.0,5.0,67,0.00,,SKC,0.00,VWS V14.01,2013-02-05 17:20:00,
2013-02-05 12:21:00,47.8,37.0,29.96,SSE,153,3.0,4.0,66,0.00,,SKC,0.00,VWS V14.01,2013-02-05 17:21:00,
2013-02-05 12:22:00,47.9,37.1,29.96,South,171,1.0,3.0,66,0.00,,SKC,0.00,VWS V14.01,2013-02-05 17:22:00,
2013-02-05 12:23:00,47.9,36.7,29.96,South,189,3.0,4.0,65,0.00,,SKC,0.00,VWS V14.01,2013-02-05 17:23:00,
2013-02-05 12:24:00,48.0,36.8,29.96,West,265,2.0,4.0,65,0.00,,SKC,0.00,VWS V14.01,2013-02-05 17:24:00,
2013-02-05 12:25:00,48.0,36.8,29.96,NNW,338,1.0,2.0,65,0.00,,SKC,0.00,VWS V14.01,2013-02-05 17:25:00,
2013-02-05 12:26:00,48.1,36.9,29.96,NNE,17,3.0,7.0,65,0.00,,SKC,0.00,VWS V14.01,2013-02-05 17:26:00,
2013-02-05 12:27:00,48.0,36.8,29.96,NNW,346,3.0,8.0,65,0.00,,SKC,0.00,VWS V14.01,2013-02-05 17:27:00,
2013-02-05 12:28:00,47.9,36.7,29.96,SW,228,7.0,7.0,65,0.00,,SKC,0.00,VWS V14.01,2013-02-05 17:28:00,
2013-02-05 12:29:00,48.0,36.4,29.96,SW,221,7.0,7.0,64,0.00,,SKC,0.00,VWS V14.01,2013-02-05 17:29:00,
2013-02-05 12:30:00,47.9,36.3,29.96,South,178,1.0,10.0,64,0.00,,SKC,0.00,VWS V14.01,2013-02-05 17:30:00,
2013-02-05 12:31:00,47.9,36.3,29.96,SSW,203,5.0,5.0,64,0.00,,SKC,0.00,VWS V14.01,2013-02-05 17:31:00,
2013-02-05 12:32:00,47.9,36.7,29.96,SSW,203,6.0,7.0,65,0.00,,SKC,0.00,VWS V14.01,2013-02-05 17:32:00,
2013-02-05 12:33:00,47.8,36.2,29.96,West,260,5.0,11.0,64,0.00,,SKC,0.00,VWS V14.01,2013-02-05 17:33:00,
2013-02-05 12:34:00,47.8,36.2,29.95,SSW,207,4.0,5.0,64,0.00,,SKC,0.00,VWS V14.01,2013-02-05 17:34:00,
2013-02-05 12:35:00,47.9,36.3,29.95,NNW,345,3.0,5.0,64,0.00,,SKC,0.00,VWS V14.01,2013-02-05 17:35:00,
2013-02-05 12:36:00,47.9,36.7,29.95,NNE,29,2.0,6.0,65,0.00,,SKC,0.00,VWS V14.01,2013-02-05 17:36:00,
2013-02-05 12:37:00,47.9,37.5,29.95,ENE,63,3.0,5.0,67,0.00,,SKC,0.00,VWS V14.01,2013-02-05 17:37:00,
2013-02-05 12:38:00,48.0,37.2,29.95,North,5,2.0,5.0,66,0.00,,SKC,0.00,VWS V14.01,2013-02-05 17:38:00,
2013-02-05 12:39:00,48.0,37.2,29.95,NNW,330,6.0,6.0,66,0.00,,SKC,0.00,VWS V14.01,2013-02-05 17:39:00,
2013-02-05 12:40:00,48.1,36.5,29.95,NW,304,4.0,13.0,64,0.00,,SKC,0.00,VWS V14.01,2013-02-05 17:40:00,
2013-02-05 12:41:00,47.9,35.9,29.95,North,11,2.0,11.0,63,0.00,,SKC,0.00,VWS V14.01,2013-02-05 17:41:00,
2013-02-05 12:42:00,47.8,36.2,29.95,WNW,291,3.0,4.0,64,0.00,,SKC,0.00,VWS V14.01,2013-02-05 17:42:00,
2013-02-05 12:43:00,47.9,36.7,29.95,NW,310,5.0,9.0,65,0.00,,SKC,0.00,VWS V14.01,2013-02-05 17:43:00,
2013-02-05 12:44:00,47.9,36.3,29.95,SSW,194,6.0,7.0,64,0.00,,SKC,0.00,VWS V14.01,2013-02-05 17:44:00,
2013-02-05 12:45:00,47.8,36.2,29.95,SSW,192,5.0,6.0,64,0.00,,SKC,0.00,VWS V14.01,2013-02-05 17:45:00,
2013-02-05 12:46:00,47.8,36.2,29.95,SW,214,0.0,9.0,64,0.00,,SKC,0.00,VWS V14.01,2013-02-05 17:46:00,
2013-02-05 12:47:00,47.8,36.2,29.95,NNE,13,3.0,8.0,64,0.00,,SKC,0.00,VWS V14.01,2013-02-05 17:47:00,
2013-02-05 12:48:00,47.8,36.6,29.95,North,11,5.0,7.0,65,0.00,,SKC,0.00,VWS V14.01,2013-02-05 17:48:00,
2013-02-05 12:49:00,47.8,36.6,29.95,North,355,0.0,7.0,65,0.00,,SKC,0.00,VWS V14.01,2013-02-05 17:49:00,
2013-02-05 12:50:00,47.9,37.1,29.94,North,355,2.0,3.0,66,0.00,,SKC,0.00,VWS V14.01,2013-02-05 17:50:00,
2013-02-05 12:51:00,48.1,36.5,29.94,WSW,256,8.0,9.0,64,0.00,,SKC,0.00,VWS V14.01,2013-02-05 17:51:00,
2013-02-05 12:52:00,48.2,35.8,29.94,East,88,2.0,8.0,62,0.00,,SKC,0.00,VWS V14.01,2013-02-05 17:52:00,
2013-02-05 12:53:00,48.3,36.3,29.94,SSW,208,1.0,3.0,63,0.00,,SKC,0.00,VWS V14.01,2013-02-05 17:53:00,
2013-02-05 12:54:00,48.5,36.5,29.94,WSW,245,3.0,6.0,63,0.00,,SKC,0.00,VWS V14.01,2013-02-05 17:54:00,
2013-02-05 12:55:00,48.6,36.2,29.94,West,265,0.0,6.0,62,0.00,,SKC,0.00,VWS V14.01,2013-02-05 17:55:00,
2013-02-05 12:56:00,48.7,36.7,29.94,West,272,2.0,3.0,63,0.00,,SKC,0.00,VWS V14.01,2013-02-05 17:56:00,
2013-02-05 12:57:00,48.8,36.4,29.94,North,355,6.0,8.0,62,0.00,,SKC,0.00,VWS V14.01,2013-02-05 17:57:00,
2013-02-05 12:58:00,48.8,36.4,29.94,North,350,6.0,7.0,62,0.00,,SKC,0.00,VWS V14.01,2013-02-05 17:58:00,
2013-02-05 12:59:00,48.8,36.4,29.94,NNW,329,7.0,7.0,62,0.00,,SKC,0.00,VWS V14.01,2013-02-05 17:59:00,
2013-02-05 13:00:00,48.9,36.5,29.94,SSW,211,6.0,6.0,62,0.00,,SKC,0.00,VWS V14.01,2013-02-05 18:00:00,
2013-02-05 13:01:00,49.0,36.2,29.94,SSE,155,0.0,8.0,61,0.00,,SKC,0.00,VWS V14.01,2013-02-05 18:01:00,
2013-02-05 13:02:00,49.0,36.2,29.94,North,11,3.0,4.0,61,0.00,,SKC,0.00,VWS V14.01,2013-02-05 18:02:00,
2013-02-05 13:03:00,49.0,36.2,29.94,SSE,163,3.0,3.0,61,0.00,,SKC,0.00,VWS V14.01,2013-02-05 18:03:00,
2013-02-05 13:04:00,49.0,36.2,29.94,SW,233,2.0,11.0,61,0.00,,SKC,0.00,VWS V14.01,2013-02-05 18:04:00,
2013-02-05 13:05:00,49.0,35.7,29.94,SW,233,1.0,2.0,60,0.00,,SKC,0.00,VWS V14.01,2013-02-05 18:05:00,
2013-02-05 13:06:00,49.1,36.2,29.94,NNE,25,4.0,6.0,61,0.00,,SKC,0.00,VWS V14.01,2013-02-05 18:06:00,
2013-02-05 13:07:00,49.2,36.8,29.94,WSW,237,5.0,6.0,62,0.00,,SKC,0.00,VWS V14.01,2013-02-05 18:07:00,
2013-02-05 13:08:00,49.2,35.9,29.94,WSW,238,4.0,7.0,60,0.00,,SKC,0.00,VWS V14.01,2013-02-05 18:08:00,
2013-02-05 13:09:00,49.2,35.9,29.94,SE,140,4.0,5.0,60,0.00,,SKC,0.00,VWS V14.01,2013-02-05 18:09:00,
2013-02-05 13:10:00,49.2,35.9,29.93,SSW,196,7.0,10.0,60,0.00,,SKC,0.00,VWS V14.01,2013-02-05 18:10:00,
2013-02-05 13:11:00,49.1,35.8,29.94,SSW,211,2.0,15.0,60,0.00,,SKC,0.00,VWS V14.01,2013-02-05 18:11:00,
2013-02-05 13:12:00,49.0,35.7,29.94,SSE,163,1.0,4.0,60,0.00,,SKC,0.00,VWS V14.01,2013-02-05 18:12:00,
2013-02-05 13:13:00,49.0,36.6,29.94,SSE,163,0.0,1.0,62,0.00,,SKC,0.00,VWS V14.01,2013-02-05 18:13:00,
2013-02-05 13:14:00,49.2,36.3,29.94,North,360,4.0,8.0,61,0.00,,SKC,0.00,VWS V14.01,2013-02-05 18:14:00,
2013-02-05 13:15:00,49.2,36.3,29.93,North,360,2.0,4.0,61,0.00,,SKC,0.00,VWS V14.01,2013-02-05 18:15:00,
2013-02-05 13:16:00,49.1,36.7,29.93,North,11,4.0,4.0,62,0.00,,SKC,0.00,VWS V14.01,2013-02-05 18:16:00,
2013-02-05 13:17:00,49.1,36.7,29.94,North,11,1.0,4.0,62,0.00,,SKC,0.00,VWS V14.01,2013-02-05 18:17:00,
2013-02-05 13:18:00,49.2,36.8,29.94,SSW,207,4.0,6.0,62,0.00,,SKC,0.00,VWS V14.01,2013-02-05 18:18:00,
2013-02-05 13:19:00,49.2,36.3,29.94,NNW,347,4.0,5.0,61,0.00,,SKC,0.00,VWS V14.01,2013-02-05 18:19:00,
2013-02-05 13:20:00,49.2,36.3,29.93,NNW,347,0.0,4.0,61,0.00,,SKC,0.00,VWS V14.01,2013-02-05 18:20:00,
2013-02-05 13:21:00,49.2,36.3,29.94,NE,46,4.0,4.0,61,0.00,,SKC,0.00,VWS V14.01,2013-02-05 18:21:00,
2013-02-05 13:22:00,49.2,36.3,29.94,North,9,12.0,12.0,61,0.00,,SKC,0.00,VWS V14.01,2013-02-05 18:22:00,
2013-02-05 13:23:00,49.0,36.6,29.94,NE,44,7.0,14.0,62,0.00,,SKC,0.00,VWS V14.01,2013-02-05 18:23:00,
2013-02-05 13:24:00,48.8,36.4,29.93,NNE,21,1.0,8.0,62,0.00,,SKC,0.00,VWS V14.01,2013-02-05 18:24:00,
2013-02-05 13:25:00,48.7,36.3,29.93,NNE,31,3.0,3.0,62,0.00,,SKC,0.00,VWS V14.01,2013-02-05 18:25:00,
2013-02-05 13:26:00,48.5,36.1,29.93,NNE,32,2.0,2.0,62,0.00,,SKC,0.00,VWS V14.01,2013-02-05 18:26:00,
2013-02-05 13:27:00,48.4,36.4,29.93,SE,134,4.0,5.0,63,0.00,,SKC,0.00,VWS V14.01,2013-02-05 18:27:00,
2013-02-05 13:28:00,48.3,36.3,29.93,NNW,329,3.0,6.0,63,0.00,,SKC,0.00,VWS V14.01,2013-02-05 18:28:00,
2013-02-05 13:29:00,48.2,36.2,29.93,NNW,338,8.0,10.0,63,0.00,,SKC,0.00,VWS V14.01,2013-02-05 18:29:00,
2013-02-05 13:30:00,48.1,36.1,29.93,NNW,336,3.0,8.0,63,0.00,,SKC,0.00,VWS V14.01,2013-02-05 18:30:00,
2013-02-05 13:31:00,48.2,36.6,29.93,NNW,336,1.0,1.0,64,0.00,,SKC,0.00,VWS V14.01,2013-02-05 18:31:00,
2013-02-05 13:32:00,48.3,36.7,29.93,NE,43,4.0,4.0,64,0.00,,SKC,0.00,VWS V14.01,2013-02-05 18:32:00,
2013-02-05 13:33:00,48.4,36.4,29.93,ENE,69,7.0,7.0,63,0.00,,SKC,0.00,VWS V14.01,2013-02-05 18:33:00,
2013-02-05 13:34:00,48.4,36.4,29.92,North,5,7.0,12.0,63,0.00,,SKC,0.00,VWS V14.01,2013-02-05 18:34:00,
2013-02-05 13:35:00,48.4,36.0,29.93,NNE,14,6.0,8.0,62,0.00,,SKC,0.00,VWS V14.01,2013-02-05 18:35:00,
2013-02-05 13:36:00,48.3,36.3,29.93,North,350,8.0,8.0,63,0.00,,SKC,0.00,VWS V14.01,2013-02-05 18:36:00,
2013-02-05 13:37:00,48.4,36.4,29.93,NNE,25,4.0,8.0,63,0.00,,SKC,0.00,VWS V14.01,2013-02-05 18:37:00,
2013-02-05 13:38:00,48.4,36.0,29.93,North,5,4.0,6.0,62,0.00,,SKC,0.00,VWS V14.01,2013-02-05 18:38:00,
2013-02-05 13:39:00,48.4,36.4,29.92,NNE,32,3.0,6.0,63,0.00,,SKC,0.00,VWS V14.01,2013-02-05 18:39:00,
2013-02-05 13:40:00,48.4,36.4,29.93,North,10,6.0,9.0,63,0.00,,SKC,0.00,VWS V14.01,2013-02-05 18:40:00,
2013-02-05 13:41:00,48.5,36.5,29.93,NNW,348,6.0,9.0,63,0.00,,SKC,0.00,VWS V14.01,2013-02-05 18:41:00,
2013-02-05 13:42:00,48.6,36.2,29.93,NNE,15,5.0,10.0,62,0.00,,SKC,0.00,VWS V14.01,2013-02-05 18:42:00,
2013-02-05 13:43:00,48.5,36.1,29.93,NE,40,5.0,6.0,62,0.00,,SKC,0.00,VWS V14.01,2013-02-05 18:43:00,
2013-02-05 13:44:00,48.5,36.5,29.93,NNE,22,2.0,6.0,63,0.00,,SKC,0.00,VWS V14.01,2013-02-05 18:44:00,
2013-02-05 13:45:00,48.5,36.5,29.92,NE,49,3.0,3.0,63,0.00,,SKC,0.00,VWS V14.01,2013-02-05 18:45:00,
2013-02-05 13:46:00,48.6,36.6,29.92,NNE,23,5.0,6.0,63,0.00,,SKC,0.00,VWS V14.01,2013-02-05 18:46:00,
2013-02-05 13:47:00,48.6,36.6,29.93,North,355,8.0,8.0,63,0.00,,SKC,0.00,VWS V14.01,2013-02-05 18:47:00,
2013-02-05 13:48:00,48.7,36.3,29.93,NNE,21,3.0,9.0,62,0.00,,SKC,0.00,VWS V14.01,2013-02-05 18:48:00,
2013-02-05 13:49:00,48.8,36.8,29.92,NNE,17,4.0,5.0,63,0.00,,SKC,0.00,VWS V14.01,2013-02-05 18:49:00,
2013-02-05 13:50:00,48.8,36.8,29.92,NNE,28,8.0,9.0,63,0.00,,SKC,0.00,VWS V14.01,2013-02-05 18:50:00,
2013-02-05 13:51:00,48.8,36.4,29.92,NNE,24,8.0,9.0,62,0.00,,SKC,0.00,VWS V14.01,2013-02-05 18:51:00,
2013-02-05 13:52:00,48.8,36.4,29.92,North,355,6.0,8.0,62,0.00,,SKC,0.00,VWS V14.01,2013-02-05 18:52:00,
2013-02-05 13:53:00,48.8,36.8,29.93,North,5,7.0,8.0,63,0.00,,SKC,0.00,VWS V14.01,2013-02-05 18:53:00,
2013-02-05 13:54:00,48.8,36.4,29.92,West,273,1.0,12.0,62,0.00,,SKC,0.00,VWS V14.01,2013-02-05 18:54:00,
2013-02-05 13:55:00,48.8,36.4,29.92,North,355,4.0,4.0,62,0.00,,SKC,0.00,VWS V14.01,2013-02-05 18:55:00,
2013-02-05 13:56:00,48.7,36.3,29.93,NNE,21,6.0,8.0,62,0.00,,SKC,0.00,VWS V14.01,2013-02-05 18:56:00,
2013-02-05 13:57:00,48.6,36.6,29.92,NW,321,11.0,11.0,63,0.00,,SKC,0.00,VWS V14.01,2013-02-05 18:57:00,
2013-02-05 13:58:00,48.6,36.2,29.92,NNE,21,2.0,11.0,62,0.00,,SKC,0.00,VWS V14.01,2013-02-05 18:58:00,
2013-02-05 13:59:00,48.7,36.7,29.93,NNE,28,2.0,2.0,63,0.00,,SKC,0.00,VWS V14.01,2013-02-05 18:59:00,
2013-02-05 14:00:00,48.7,36.3,29.93,NNE,24,3.0,4.0,62,0.00,,SKC,0.00,VWS V14.01,2013-02-05 19:00:00,
2013-02-05 14:01:00,48.7,36.3,29.93,ENE,58,7.0,7.0,62,0.00,,SKC,0.00,VWS V14.01,2013-02-05 19:01:00,
2013-02-05 14:02:00,48.7,36.3,29.92,North,355,6.0,7.0,62,0.00,,SKC,0.00,VWS V14.01,2013-02-05 19:02:00,
2013-02-05 14:03:00,48.7,36.3,29.93,North,350,5.0,7.0,62,0.00,,SKC,0.00,VWS V14.01,2013-02-05 19:03:00,
2013-02-05 14:04:00,48.7,36.3,29.92,NNE,21,3.0,5.0,62,0.00,,SKC,0.00,VWS V14.01,2013-02-05 19:04:00,
2013-02-05 14:05:00,48.7,36.3,29.93,West,275,5.0,5.0,62,0.00,,SKC,0.00,VWS V14.01,2013-02-05 19:05:00,
2013-02-05 14:06:00,48.8,36.4,29.93,West,277,0.0,2.0,62,0.00,,SKC,0.00,VWS V14.01,2013-02-05 19:06:00,
2013-02-05 14:07:00,48.9,36.5,29.93,ESE,116,2.0,5.0,62,0.00,,SKC,0.00,VWS V14.01,2013-02-05 19:07:00,
2013-02-05 14:08:00,49.0,36.6,29.93,NNE,20,2.0,4.0,62,0.00,,SKC,0.00,VWS V14.01,2013-02-05 19:08:00,
2013-02-05 14:09:00,49.0,36.6,29.93,NNW,340,4.0,6.0,62,0.00,,SKC,0.00,VWS V14.01,2013-02-05 19:09:00,
2013-02-05 14:10:00,49.1,36.2,29.93,NNW,340,0.0,4.0,61,0.00,,SKC,0.00,VWS V14.01,2013-02-05 19:10:00,
2013-02-05 14:11:00,49.1,36.7,29.93,NNW,340,1.0,3.0,62,0.00,,SKC,0.00,VWS V14.01,2013-02-05 19:11:00,
2013-02-05 14:12:00,49.2,36.3,29.93,SSW,210,4.0,6.0,61,0.00,,SKC,0.00,VWS V14.01,2013-02-05 19:12:00,
2013-02-05 14:13:00,49.4,36.5,29.93,SSW,210,0.0,4.0,61,0.00,,SKC,0.00,VWS V14.01,2013-02-05 19:13:00,
2013-02-05 14:14:00,49.6,36.7,29.93,South,184,3.0,7.0,61,0.00,,SKC,0.00,VWS V14.01,2013-02-05 19:14:00,
2013-02-05 14:15:00,49.7,36.4,29.93,SSW,207,2.0,8.0,60,0.00,,SKC,0.00,VWS V14.01,2013-02-05 19:15:00,
2013-02-05 14:16:00,49.8,36.5,29.93,NNE,22,6.0,6.0,60,0.00,,SKC,0.00,VWS V14.01,2013-02-05 19:16:00,
2013-02-05 14:17:00,49.9,37.0,29.93,NE,36,6.0,6.0,61,0.00,,SKC,0.00,VWS V14.01,2013-02-05 19:17:00,
2013-02-05 14:18:00,49.9,36.6,29.93,NNE,23,6.0,8.0,60,0.00,,SKC,0.00,VWS V14.01,2013-02-05 19:18:00,
2013-02-05 14:19:00,49.8,36.1,29.93,North,360,3.0,7.0,59,0.00,,SKC,0.00,VWS V14.01,2013-02-05 19:19:00,
2013-02-05 14:20:00,49.7,36.0,29.93,North,360,0.0,3.0,59,0.00,,SKC,0.00,VWS V14.01,2013-02-05 19:20:00,
2013-02-05 14:21:00,49.8,36.5,29.93,SSE,166,2.0,7.0,60,0.00,,SKC,0.00,VWS V14.01,2013-02-05 19:21:00,
2013-02-05 14:22:00,49.8,36.1,29.93,North,350,3.0,4.0,59,0.00,,SKC,0.00,VWS V14.01,2013-02-05 19:22:00,
2013-02-05 14:23:00,49.9,36.6,29.93,NNE,18,3.0,3.0,60,0.00,,SKC,0.00,VWS V14.01,2013-02-05 19:23:00,
2013-02-05 14:24:00,49.9,36.2,29.93,NE,53,3.0,8.0,59,0.00,,SKC,0.00,VWS V14.01,2013-02-05 19:24:00,
2013-02-05 14:25:00,49.9,36.2,29.93,North,360,4.0,6.0,59,0.00,,SKC,0.00,VWS V14.01,2013-02-05 19:25:00,
2013-02-05 14:26:00,49.9,36.6,29.93,North,5,4.0,8.0,60,0.00,,SKC,0.00,VWS V14.01,2013-02-05 19:26:00,
2013-02-05 14:27:00,49.9,36.2,29.93,NW,316,4.0,9.0,59,0.00,,SKC,0.00,VWS V14.01,2013-02-05 19:27:00,
2013-02-05 14:28:00,49.8,35.6,29.93,NW,323,4.0,5.0,58,0.00,,SKC,0.00,VWS V14.01,2013-02-05 19:28:00,
2013-02-05 14:29:00,49.9,35.7,29.92,West,264,3.0,5.0,58,0.00,,SKC,0.00,VWS V14.01,2013-02-05 19:29:00,
2013-02-05 14:30:00,49.9,35.7,29.93,WSW,257,0.0,4.0,58,0.00,,SKC,0.00,VWS V14.01,2013-02-05 19:30:00,
2013-02-05 14:31:00,50.1,36.8,29.92,SW,222,1.0,1.0,60,0.00,,SKC,0.00,VWS V14.01,2013-02-05 19:31:00,
2013-02-05 14:32:00,50.3,36.5,29.93,SSW,205,2.0,7.0,59,0.00,,SKC,0.00,VWS V14.01,2013-02-05 19:32:00,
2013-02-05 14:33:00,50.4,36.2,29.93,SSE,154,3.0,5.0,58,0.00,,SKC,0.00,VWS V14.01,2013-02-05 19:33:00,
2013-02-05 14:34:00,50.5,36.3,29.92,SSW,205,6.0,8.0,58,0.00,,SKC,0.00,VWS V14.01,2013-02-05 19:34:00,
2013-02-05 14:35:00,50.5,36.3,29.92,WSW,250,8.0,8.0,58,0.00,,SKC,0.00,VWS V14.01,2013-02-05 19:35:00,
2013-02-05 14:36:00,50.7,36.5,29.93,West,279,0.0,4.0,58,0.00,,SKC,0.00,VWS V14.01,2013-02-05 19:36:00,
2013-02-05 14:37:00,50.8,36.6,29.93,West,279,0.0,0.0,58,0.00,,SKC,0.00,VWS V14.01,2013-02-05 19:37:00,
2013-02-05 14:38:00,51.0,36.8,29.93,WNW,302,3.0,5.0,58,0.00,,SKC,0.00,VWS V14.01,2013-02-05 19:38:00,
2013-02-05 14:39:00,51.1,36.8,29.93,NNW,340,2.0,6.0,58,0.00,,SKC,0.00,VWS V14.01,2013-02-05 19:39:00,
2013-02-05 14:40:00,51.1,36.8,29.93,North,355,8.0,8.0,58,0.00,,SKC,0.00,VWS V14.01,2013-02-05 19:40:00,
2013-02-05 14:41:00,51.1,36.4,29.93,North,355,3.0,9.0,57,0.00,,SKC,0.00,VWS V14.01,2013-02-05 19:41:00,
2013-02-05 14:42:00,51.1,36.8,29.93,North,349,4.0,4.0,58,0.00,,SKC,0.00,VWS V14.01,2013-02-05 19:42:00,
2013-02-05 14:43:00,51.1,36.4,29.93,WSW,244,5.0,5.0,57,0.00,,SKC,0.00,VWS V14.01,2013-02-05 19:43:00,
2013-02-05 14:44:00,51.0,35.9,29.92,SW,233,3.0,7.0,56,0.00,,SKC,0.00,VWS V14.01,2013-02-05 19:44:00,
2013-02-05 14:45:00,51.0,36.3,29.92,WSW,246,1.0,3.0,57,0.00,,SKC,0.00,VWS V14.01,2013-02-05 19:45:00,
2013-02-05 14:46:00,51.1,36.0,29.92,South,182,0.0,6.0,56,0.00,,SKC,0.00,VWS V14.01,2013-02-05 19:46:00,
2013-02-05 14:47:00,51.2,36.5,29.92,South,182,0.0,3.0,57,0.00,,SKC,0.00,VWS V14.01,2013-02-05 19:47:00,
2013-02-05 14:48:00,51.3,37.0,29.92,South,182,2.0,2.0,58,0.00,,SKC,0.00,VWS V14.01,2013-02-05 19:48:00,
2013-02-05 14:49:00,51.5,36.8,29.92,South,182,2.0,2.0,57,0.00,,SKC,0.00,VWS V14.01,2013-02-05 19:49:00,
2013-02-05 14:50:00,51.5,36.8,29.92,NW,322,2.0,4.0,57,0.00,,SKC,0.00,VWS V14.01,2013-02-05 19:50:00,
2013-02-05 14:51:00,51.7,36.5,29.92,West,263,8.0,10.0,56,0.00,,SKC,0.00,VWS V14.01,2013-02-05 19:51:00,
2013-02-05 14:52:00,51.7,36.1,29.92,NW,309,2.0,9.0,55,0.00,,SKC,0.00,VWS V14.01,2013-02-05 19:52:00,
2013-02-05 14:53:00,51.6,36.0,29.92,SSE,168,2.0,4.0,55,0.00,,SKC,0.00,VWS V14.01,2013-02-05 19:53:00,
2013-02-05 14:54:00,51.6,36.4,29.92,SE,146,6.0,7.0,56,0.00,,SKC,0.00,VWS V14.01,2013-02-05 19:54:00,
2013-02-05 14:55:00,51.6,36.4,29.92,NNW,340,5.0,6.0,56,0.00,,SKC,0.00,VWS V14.01,2013-02-05 19:55:00,
2013-02-05 14:56:00,51.6,36.4,29.92,North,360,5.0,9.0,56,0.00,,SKC,0.00,VWS V14.01,2013-02-05 19:56:00,
2013-02-05 14:57:00,51.5,35.9,29.92,WSW,257,4.0,6.0,55,0.00,,SKC,0.00,VWS V14.01,2013-02-05 19:57:00,
2013-02-05 14:58:00,51.6,36.0,29.92,WSW,255,0.0,4.0,55,0.00,,SKC,0.00,VWS V14.01,2013-02-05 19:58:00,
2013-02-05 14:59:00,51.7,36.1,29.92,SW,234,0.0,1.0,55,0.00,,SKC,0.00,VWS V14.01,2013-02-05 19:59:00,
2013-02-05 15:00:00,51.8,36.2,29.92,SSE,151,2.0,7.0,55,0.00,,SKC,0.00,VWS V14.01,2013-02-05 20:00:00,
2013-02-05 15:01:00,51.8,35.7,29.92,NE,43,3.0,4.0,54,0.00,,SKC,0.00,VWS V14.01,2013-02-05 20:01:00,
2013-02-05 15:02:00,51.8,36.2,29.92,NE,36,6.0,6.0,55,0.00,,SKC,0.00,VWS V14.01,2013-02-05 20:02:00,
2013-02-05 15:03:00,51.9,36.3,29.92,North,355,3.0,6.0,55,0.00,,SKC,0.00,VWS V14.01,2013-02-05 20:03:00,
2013-02-05 15:04:00,51.9,36.3,29.92,WNW,295,1.0,3.0,55,0.00,,SKC,0.00,VWS V14.01,2013-02-05 20:04:00,
2013-02-05 15:05:00,52.0,36.3,29.92,North,5,6.0,6.0,55,0.00,,SKC,0.00,VWS V14.01,2013-02-05 20:05:00,
2013-02-05 15:06:00,51.9,36.3,29.92,NNE,30,2.0,8.0,55,0.00,,SKC,0.00,VWS V14.01,2013-02-05 20:06:00,
2013-02-05 15:07:00,51.9,35.8,29.92,NNE,16,6.0,6.0,54,0.00,,SKC,0.00,VWS V14.01,2013-02-05 20:07:00,
2013-02-05 15:08:00,51.8,36.2,29.92,NNE,15,2.0,6.0,55,0.00,,SKC,0.00,VWS V14.01,2013-02-05 20:08:00,
2013-02-05 15:09:00,51.8,35.7,29.92,NNE,15,1.0,2.0,54,0.00,,SKC,0.00,VWS V14.01,2013-02-05 20:09:00,
2013-02-05 15:10:00,51.9,35.8,29.92,NNE,29,4.0,4.0,54,0.00,,SKC,0.00,VWS V14.01,2013-02-05 20:10:00,
2013-02-05 15:11:00,51.8,35.7,29.91,North,355,3.0,6.0,54,0.00,,SKC,0.00,VWS V14.01,2013-02-05 20:11:00,
2013-02-05 15:12:00,51.9,36.3,29.91,NW,321,5.0,6.0,55,0.00,,SKC,0.00,VWS V14.01,2013-02-05 20:12:00,
2013-02-05 15:13:00,51.9,35.8,29.91,SE,145,4.0,5.0,54,0.00,,SKC,0.00,VWS V14.01,2013-02-05 20:13:00,
2013-02-05 15:14:00,52.0,35.9,29.91,South,182,2.0,7.0,54,0.00,,SKC,0.00,VWS V14.01,2013-02-05 20:14:00,
2013-02-05 15:15:00,52.1,36.0,29.91,NNW,338,2.0,4.0,54,0.00,,SKC,0.00,VWS V14.01,2013-02-05 20:15:00,
2013-02-05 15:16:00,52.1,36.0,29.92,SW,217,7.0,7.0,54,0.00,,SKC,0.00,VWS V14.01,2013-02-05 20:16:00,
2013-02-05 15:17:00,52.2,35.6,29.92,WSW,257,0.0,7.0,53,0.00,,SKC,0.00,VWS V14.01,2013-02-05 20:17:00,
2013-02-05 15:18:00,52.2,35.6,29.91,South,178,4.0,4.0,53,0.00,,SKC,0.00,VWS V14.01,2013-02-05 20:18:00,
2013-02-05 15:19:00,52.3,35.7,29.91,South,178,0.0,4.0,53,0.00,,SKC,0.00,VWS V14.01,2013-02-05 20:19:00,
2013-02-05 15:20:00,52.3,36.2,29.92,South,178,0.0,0.0,54,0.00,,SKC,0.00,VWS V14.01,2013-02-05 20:20:00,
2013-02-05 15:21:00,52.5,35.9,29.92,South,176,4.0,6.0,53,0.00,,SKC,0.00,VWS V14.01,2013-02-05 20:21:00,
2013-02-05 15:22:00,52.6,35.5,29.92,SW,215,6.0,6.0,52,0.00,,SKC,0.00,VWS V14.01,2013-02-05 20:22:00,
2013-02-05 15:23:00,52.6,35.0,29.92,SW,230,3.0,6.0,51,0.00,,SKC,0.00,VWS V14.01,2013-02-05 20:23:00,
2013-02-05 15:24:00,52.6,35.5,29.92,NE,45,2.0,3.0,52,0.00,,SKC,0.00,VWS V14.01,2013-02-05 20:24:00,
2013-02-05 15:25:00,52.6,35.0,29.92,NE,45,1.0,2.0,51,0.00,,SKC,0.00,VWS V14.01,2013-02-05 20:25:00,
2013-02-05 15:26:00,52.6,35.0,29.92,SE,126,1.0,3.0,51,0.00,,SKC,0.00,VWS V14.01,2013-02-05 20:26:00,
2013-02-05 15:27:00,52.6,35.0,29.92,WNW,288,4.0,9.0,51,0.00,,SKC,0.00,VWS V14.01,2013-02-05 20:27:00,
2013-02-05 15:28:00,52.6,35.0,29.92,WNW,293,8.0,8.0,51,0.00,,SKC,0.00,VWS V14.01,2013-02-05 20:28:00,
2013-02-05 15:29:00,52.6,35.0,29.92,NNE,32,1.0,9.0,51,0.00,,SKC,0.00,VWS V14.01,2013-02-05 20:29:00,
2013-02-05 15:30:00,52.6,34.5,29.92,NNW,341,2.0,5.0,50,0.00,,SKC,0.00,VWS V14.01,2013-02-05 20:30:00,
2013-02-05 15:31:00,52.6,35.0,29.92,NNW,341,2.0,2.0,51,0.00,,SKC,0.00,VWS V14.01,2013-02-05 20:31:00,
2013-02-05 15:32:00,52.6,35.0,29.92,NE,34,2.0,6.0,51,0.00,,SKC,0.00,VWS V14.01,2013-02-05 20:32:00,
2013-02-05 15:33:00,52.6,34.5,29.92,NE,34,3.0,3.0,50,0.00,,SKC,0.00,VWS V14.01,2013-02-05 20:33:00,
2013-02-05 15:34:00,52.6,34.5,29.92,NE,34,2.0,3.0,50,0.00,,SKC,0.00,VWS V14.01,2013-02-05 20:34:00,
2013-02-05 15:35:00,52.6,34.5,29.92,NE,34,1.0,2.0,50,0.00,,SKC,0.00,VWS V14.01,2013-02-05 20:35:00,
2013-02-05 15:36:00,52.8,35.2,29.92,NNE,15,4.0,4.0,51,0.00,,SKC,0.00,VWS V14.01,2013-02-05 20:36:00,
2013-02-05 15:37:00,52.9,34.8,29.92,NNE,15,2.0,6.0,50,0.00,,SKC,0.00,VWS V14.01,2013-02-05 20:37:00,
2013-02-05 15:38:00,52.9,34.8,29.92,South,186,3.0,8.0,50,0.00,,SKC,0.00,VWS V14.01,2013-02-05 20:38:00,
2013-02-05 15:39:00,52.9,34.3,29.92,South,173,3.0,3.0,49,0.00,,SKC,0.00,VWS V14.01,2013-02-05 20:39:00,
2013-02-05 15:40:00,52.8,34.7,29.92,South,178,3.0,4.0,50,0.00,,SKC,0.00,VWS V14.01,2013-02-05 20:40:00,
2013-02-05 15:41:00,52.8,34.2,29.92,SSW,198,0.0,5.0,49,0.00,,SKC,0.00,VWS V14.01,2013-02-05 20:41:00,
2013-02-05 15:42:00,52.9,34.8,29.92,SSW,198,2.0,3.0,50,0.00,,SKC,0.00,VWS V14.01,2013-02-05 20:42:00,
2013-02-05 15:43:00,52.9,34.3,29.92,WSW,249,2.0,5.0,49,0.00,,SKC,0.00,VWS V14.01,2013-02-05 20:43:00,
2013-02-05 15:44:00,53.0,34.4,29.92,SSW,204,5.0,7.0,49,0.00,,SKC,0.00,VWS V14.01,2013-02-05 20:44:00,
2013-02-05 15:45:00,52.9,33.2,29.92,SW,214,4.0,8.0,47,0.00,,SKC,0.00,VWS V14.01,2013-02-05 20:45:00,
2013-02-05 15:46:00,52.8,33.2,29.92,SSW,213,4.0,6.0,47,0.00,,SKC,0.00,VWS V14.01,2013-02-05 20:46:00,
2013-02-05 15:47:00,52.8,33.7,29.92,SW,226,2.0,6.0,48,0.00,,SKC,0.00,VWS V14.01,2013-02-05 20:47:00,
2013-02-05 15:48:00,52.8,33.7,29.92,WSW,243,3.0,3.0,48,0.00,,SKC,0.00,VWS V14.01,2013-02-05 20:48:00,
2013-02-05 15:49:00,52.9,33.2,29.92,West,265,0.0,5.0,47,0.00,,SKC,0.00,VWS V14.01,2013-02-05 20:49:00,
2013-02-05 15:50:00,52.9,33.8,29.92,West,265,0.0,0.0,48,0.00,,SKC,0.00,VWS V14.01,2013-02-05 20:50:00,
2013-02-05 15:51:00,53.0,33.8,29.92,WNW,283,4.0,4.0,48,0.00,,SKC,0.00,VWS V14.01,2013-02-05 20:51:00,
2013-02-05 15:52:00,53.1,33.9,29.92,WNW,295,2.0,4.0,48,0.00,,SKC,0.00,VWS V14.01,2013-02-05 20:52:00,
2013-02-05 15:53:00,53.2,34.0,29.92,South,188,2.0,3.0,48,0.00,,SKC,0.00,VWS V14.01,2013-02-05 20:53:00,
2013-02-05 15:54:00,53.4,33.7,29.92,SSW,194,0.0,3.0,47,0.00,,SKC,0.00,VWS V14.01,2013-02-05 20:54:00,
2013-02-05 15:55:00,53.5,33.8,29.92,SSW,194,2.0,2.0,47,0.00,,SKC,0.00,VWS V14.01,2013-02-05 20:55:00,
2013-02-05 15:56:00,53.7,33.4,29.92,WSW,242,2.0,4.0,46,0.00,,SKC,0.00,VWS V14.01,2013-02-05 20:56:00,
2013-02-05 15:57:00,53.7,33.4,29.92,NNE,15,3.0,7.0,46,0.00,,SKC,0.00,VWS V14.01,2013-02-05 20:57:00,
2013-02-05 15:58:00,53.6,33.3,29.92,North,11,0.0,4.0,46,0.00,,SKC,0.00,VWS V14.01,2013-02-05 20:58:00,
2013-02-05 15:59:00,53.6,33.3,29.92,North,11,4.0,4.0,46,0.00,,SKC,0.00,VWS V14.01,2013-02-05 20:59:00,
2013-02-05 16:00:00,53.6,33.3,29.92,NNW,329,4.0,5.0,46,0.00,,SKC,0.00,VWS V14.01,2013-02-05 21:00:00,
2013-02-05 16:01:00,53.5,33.2,29.92,NNW,330,5.0,7.0,46,0.00,,SKC,0.00,VWS V14.01,2013-02-05 21:01:00,
2013-02-05 16:02:00,53.5,33.2,29.92,NW,318,4.0,5.0,46,0.00,,SKC,0.00,VWS V14.01,2013-02-05 21:02:00,
2013-02-05 16:03:00,53.5,33.2,29.92,NW,318,0.0,4.0,46,0.00,,SKC,0.00,VWS V14.01,2013-02-05 21:03:00,
2013-02-05 16:04:00,53.5,33.2,29.92,SSW,198,3.0,7.0,46,0.00,,SKC,0.00,VWS V14.01,2013-02-05 21:04:00,
2013-02-05 16:05:00,53.4,33.2,29.92,SSW,195,3.0,3.0,46,0.00,,SKC,0.00,VWS V14.01,2013-02-05 21:05:00,
2013-02-05 16:06:00,53.4,33.2,29.92,SSW,194,4.0,4.0,46,0.00,,SKC,0.00,VWS V14.01,2013-02-05 21:06:00,
2013-02-05 16:07:00,53.4,33.2,29.92,South,175,0.0,4.0,46,0.00,,SKC,0.00,VWS V14.01,2013-02-05 21:07:00,
2013-02-05 16:08:00,53.4,32.6,29.92,WSW,246,5.0,5.0,45,0.00,,SKC,0.00,VWS V14.01,2013-02-05 21:08:00,
2013-02-05 16:09:00,53.4,32.6,29.92,South,188,6.0,6.0,45,0.00,,SKC,0.00,VWS V14.01,2013-02-05 21:09:00,
2013-02-05 16:10:00,53.4,32.6,29.92,SSE,157,3.0,6.0,45,0.00,,SKC,0.00,VWS V14.01,2013-02-05 21:10:00,
2013-02-05 16:11:00,53.3,33.1,29.92,WNW,290,6.0,6.0,46,0.00,,SKC,0.00,VWS V14.01,2013-02-05 21:11:00,
2013-02-05 16:12:00,53.3,32.5,29.92,North,355,5.0,7.0,45,0.00,,SKC,0.00,VWS V14.01,2013-02-05 21:12:00,
2013-02-05 16:13:00,53.2,32.4,29.92,North,355,0.0,5.0,45,0.00,,SKC,0.00,VWS V14.01,2013-02-05 21:13:00,
2013-02-05 16:14:00,53.2,32.4,29.92,North,350,3.0,3.0,45,0.00,,SKC,0.00,VWS V14.01,2013-02-05 21:14:00,
2013-02-05 16:15:00,53.3,32.5,29.92,WSW,243,1.0,4.0,45,0.00,,SKC,0.00,VWS V14.01,2013-02-05 21:15:00,
2013-02-05 16:16:00,53.4,33.2,29.92,North,355,5.0,5.0,46,0.00,,SKC,0.00,VWS V14.01,2013-02-05 21:16:00,
2013-02-05 16:17:00,53.4,32.6,29.92,North,349,3.0,6.0,45,0.00,,SKC,0.00,VWS V14.01,2013-02-05 21:17:00,
2013-02-05 16:18:00,53.3,32.5,29.92,NW,325,7.0,8.0,45,0.00,,SKC,0.00,VWS V14.01,2013-02-05 21:18:00,
2013-02-05 16:19:00,53.3,32.5,29.92,NW,323,1.0,8.0,45,0.00,,SKC,0.00,VWS V14.01,2013-02-05 21:19:00,
2013-02-05 16:20:00,53.3,32.5,29.92,NW,323,2.0,4.0,45,0.00,,SKC,0.00,VWS V14.01,2013-02-05 21:20:00,
2013-02-05 16:21:00,53.4,33.2,29.92,North,360,6.0,6.0,46,0.00,,SKC,0.00,VWS V14.01,2013-02-05 21:21:00,
2013-02-05 16:22:00,53.3,32.5,29.92,NNW,331,5.0,7.0,45,0.00,,SKC,0.00,VWS V14.01,2013-02-05 21:22:00,
2013-02-05 16:23:00,53.3,32.5,29.92,NW,319,3.0,5.0,45,0.00,,SKC,0.00,VWS V14.01,2013-02-05 21:23:00,
2013-02-05 16:24:00,53.3,32.5,29.92,NW,319,1.0,3.0,45,0.00,,SKC,0.00,VWS V14.01,2013-02-05 21:24:00,
2013-02-05 16:25:00,53.3,32.5,29.92,SSW,195,4.0,4.0,45,0.00,,SKC,0.00,VWS V14.01,2013-02-05 21:25:00,
2013-02-05 16:26:00,53.3,32.5,29.92,WSW,242,6.0,9.0,45,0.00,,SKC,0.00,VWS V14.01,2013-02-05 21:26:00,
2013-02-05 16:27:00,53.2,32.4,29.92,SW,236,5.0,6.0,45,0.00,,SKC,0.00,VWS V14.01,2013-02-05 21:27:00,
2013-02-05 16:28:00,53.0,32.8,29.92,WNW,301,4.0,5.0,46,0.00,,SKC,0.00,VWS V14.01,2013-02-05 21:28:00,
2013-02-05 16:29:00,52.9,32.2,29.92,WNW,300,0.0,4.0,45,0.00,,SKC,0.00,VWS V14.01,2013-02-05 21:29:00,
2013-02-05 16:30:00,52.9,32.2,29.92,WNW,300,1.0,1.0,45,0.00,,SKC,0.00,VWS V14.01,2013-02-05 21:30:00,
2013-02-05 16:31:00,52.8,32.1,29.92,NE,40,3.0,3.0,45,0.00,,SKC,0.00,VWS V14.01,2013-02-05 21:31:00,
2013-02-05 16:32:00,52.7,32.0,29.92,NE,40,0.0,3.0,45,0.00,,SKC,0.00,VWS V14.01,2013-02-05 21:32:00,
2013-02-05 16:33:00,52.7,32.0,29.92,NE,40,4.0,4.0,45,0.00,,SKC,0.00,VWS V14.01,2013-02-05 21:33:00,
2013-02-05 16:34:00,52.6,31.9,29.92,NNW,342,1.0,7.0,45,0.00,,SKC,0.00,VWS V14.01,2013-02-05 21:34:00,
2013-02-05 16:35:00,52.6,31.9,29.92,NNW,343,0.0,1.0,45,0.00,,SKC,0.00,VWS V14.01,2013-02-05 21:35:00,
2013-02-05 16:36:00,52.5,31.8,29.92,NE,55,1.0,3.0,45,0.00,,SKC,0.00,VWS V14.01,2013-02-05 21:36:00,
2013-02-05 16:37:00,52.5,32.3,29.92,NE,55,1.0,1.0,46,0.00,,SKC,0.00,VWS V14.01,2013-02-05 21:37:00,
2013-02-05 16:38:00,52.4,31.7,29.92,NE,55,3.0,3.0,45,0.00,,SKC,0.00,VWS V14.01,2013-02-05 21:38:00,
2013-02-05 16:39:00,52.4,31.7,29.92,NE,54,0.0,4.0,45,0.00,,SKC,0.00,VWS V14.01,2013-02-05 21:39:00,
2013-02-05 16:40:00,52.4,31.7,29.93,NE,54,3.0,4.0,45,0.00,,SKC,0.00,VWS V14.01,2013-02-05 21:40:00,
2013-02-05 16:41:00,52.3,31.6,29.93,NW,320,1.0,6.0,45,0.00,,SKC,0.00,VWS V14.01,2013-02-05 21:41:00,
2013-02-05 16:42:00,52.3,32.2,29.93,NW,321,0.0,1.0,46,0.00,,SKC,0.00,VWS V14.01,2013-02-05 21:42:00,
2013-02-05 16:43:00,52.3,32.2,29.93,NW,321,1.0,3.0,46,0.00,,SKC,0.00,VWS V14.01,2013-02-05 21:43:00,
2013-02-05 16:44:00,52.3,32.2,29.93,NW,321,1.0,1.0,46,0.00,,SKC,0.00,VWS V14.01,2013-02-05 21:44:00,
2013-02-05 16:45:00,52.3,32.2,29.92,NW,321,0.0,1.0,46,0.00,,SKC,0.00,VWS V14.01,2013-02-05 21:45:00,
2013-02-05 16:46:00,52.3,32.2,29.92,NW,321,1.0,2.0,46,0.00,,SKC,0.00,VWS V14.01,2013-02-05 21:46:00,
2013-02-05 16:47:00,52.3,32.2,29.92,NW,321,2.0,3.0,46,0.00,,SKC,0.00,VWS V14.01,2013-02-05 21:47:00,
2013-02-05 16:48:00,52.2,32.1,29.92,NW,321,0.0,2.0,46,0.00,,SKC,0.00,VWS V14.01,2013-02-05 21:48:00,
2013-02-05 16:49:00,52.1,32.0,29.92,NW,321,1.0,1.0,46,0.00,,SKC,0.00,VWS V14.01,2013-02-05 21:49:00,
2013-02-05 16:50:00,52.1,32.5,29.92,NW,321,0.0,1.0,47,0.00,,SKC,0.00,VWS V14.01,2013-02-05 21:50:00,
2013-02-05 16:51:00,52.1,32.5,29.92,NW,321,2.0,2.0,47,0.00,,SKC,0.00,VWS V14.01,2013-02-05 21:51:00,
2013-02-05 16:52:00,52.0,32.4,29.92,NW,321,1.0,2.0,47,0.00,,SKC,0.00,VWS V14.01,2013-02-05 21:52:00,
2013-02-05 16:53:00,51.9,31.8,29.92,NW,321,0.0,1.0,46,0.00,,SKC,0.00,VWS V14.01,2013-02-05 21:53:00,
2013-02-05 16:54:00,51.9,31.8,29.93,NW,321,2.0,2.0,46,0.00,,SKC,0.00,VWS V14.01,2013-02-05 21:54:00,
2013-02-05 16:55:00,51.8,31.7,29.92,NW,321,0.0,2.0,46,0.00,,SKC,0.00,VWS V14.01,2013-02-05 21:55:00,
2013-02-05 16:56:00,51.7,32.1,29.93,NW,319,2.0,4.0,47,0.00,,SKC,0.00,VWS V14.01,2013-02-05 21:56:00,
2013-02-05 16:57:00,51.7,31.6,29.93,SSW,197,5.0,7.0,46,0.00,,SKC,0.00,VWS V14.01,2013-02-05 21:57:00,
2013-02-05 16:58:00,51.6,31.5,29.92,SSW,196,1.0,5.0,46,0.00,,SKC,0.00,VWS V14.01,2013-02-05 21:58:00,
2013-02-05 16:59:00,51.5,31.4,29.93,West,261,3.0,3.0,46,0.00,,SKC,0.00,VWS V14.01,2013-02-05 21:59:00,
2013-02-05 17:00:00,51.5,32.0,29.93,West,271,2.0,5.0,47,0.00,,SKC,0.00,VWS V14.01,2013-02-05 22:00:00,
2013-02-05 17:01:00,51.5,31.4,29.93,WNW,286,1.0,3.0,46,0.00,,SKC,0.00,VWS V14.01,2013-02-05 22:01:00,
2013-02-05 17:02:00,51.4,31.3,29.93,WNW,286,0.0,1.0,46,0.00,,SKC,0.00,VWS V14.01,2013-02-05 22:02:00,
2013-02-05 17:03:00,51.4,31.3,29.93,WNW,286,0.0,0.0,46,0.00,,SKC,0.00,VWS V14.01,2013-02-05 22:03:00,
2013-02-05 17:04:00,51.4,31.3,29.93,WNW,286,0.0,1.0,46,0.00,,SKC,0.00,VWS V14.01,2013-02-05 22:04:00,
2013-02-05 17:05:00,51.4,31.9,29.93,WNW,286,0.0,0.0,47,0.00,,SKC,0.00,VWS V14.01,2013-02-05 22:05:00,
2013-02-05 17:06:00,51.3,31.8,29.93,WNW,286,2.0,2.0,47,0.00,,SKC,0.00,VWS V14.01,2013-02-05 22:06:00,
2013-02-05 17:07:00,51.3,31.2,29.93,WNW,286,0.0,2.0,46,0.00,,SKC,0.00,VWS V14.01,2013-02-05 22:07:00,
2013-02-05 17:08:00,51.3,31.2,29.93,WNW,286,1.0,1.0,46,0.00,,SKC,0.00,VWS V14.01,2013-02-05 22:08:00,
2013-02-05 17:09:00,51.3,31.2,29.93,NNW,345,3.0,4.0,46,0.00,,SKC,0.00,VWS V14.01,2013-02-05 22:09:00,
2013-02-05 17:10:00,51.3,31.2,29.93,NNW,345,0.0,3.0,46,0.00,,SKC,0.00,VWS V14.01,2013-02-05 22:10:00,
2013-02-05 17:11:00,51.3,31.2,29.93,NNW,345,0.0,0.0,46,0.00,,SKC,0.00,VWS V14.01,2013-02-05 22:11:00,
2013-02-05 17:12:00,51.2,31.1,29.93,NNW,345,0.0,1.0,46,0.00,,SKC,0.00,VWS V14.01,2013-02-05 22:12:00,
2013-02-05 17:13:00,51.2,31.7,29.93,NNW,345,0.0,0.0,47,0.00,,SKC,0.00,VWS V14.01,2013-02-05 22:13:00,
2013-02-05 17:14:00,51.2,31.7,29.93,NNW,345,2.0,3.0,47,0.00,,SKC,0.00,VWS V14.01,2013-02-05 22:14:00,
2013-02-05 17:15:00,51.2,31.1,29.93,NNW,345,2.0,3.0,46,0.00,,SKC,0.00,VWS V14.01,2013-02-05 22:15:00,
2013-02-05 17:16:00,51.1,31.1,29.93,NNW,343,2.0,3.0,46,0.00,,SKC,0.00,VWS V14.01,2013-02-05 22:16:00,
2013-02-05 17:17:00,51.1,31.1,29.93,NNW,342,4.0,4.0,46,0.00,,SKC,0.00,VWS V14.01,2013-02-05 22:17:00,
2013-02-05 17:18:00,51.2,31.1,29.93,NNW,341,1.0,4.0,46,0.00,,SKC,0.00,VWS V14.01,2013-02-05 22:18:00,
2013-02-05 17:19:00,51.2,31.1,29.93,NNW,342,0.0,1.0,46,0.00,,SKC,0.00,VWS V14.01,2013-02-05 22:19:00,
2013-02-05 17:20:00,51.1,31.6,29.93,NNW,341,0.0,1.0,47,0.00,,SKC,0.00,VWS V14.01,2013-02-05 22:20:00,
2013-02-05 17:21:00,51.1,31.1,29.93,NNW,342,0.0,1.0,46,0.00,,SKC,0.00,VWS V14.01,2013-02-05 22:21:00,
2013-02-05 17:22:00,51.1,31.1,29.93,NNW,339,3.0,3.0,46,0.00,,SKC,0.00,VWS V14.01,2013-02-05 22:22:00,
2013-02-05 17:23:00,51.0,31.0,29.93,SSW,209,2.0,3.0,46,0.00,,SKC,0.00,VWS V14.01,2013-02-05 22:23:00,
2013-02-05 17:24:00,51.0,31.0,29.93,SSE,168,3.0,5.0,46,0.00,,SKC,0.00,VWS V14.01,2013-02-05 22:24:00,
2013-02-05 17:25:00,51.0,31.0,29.93,SSW,211,3.0,4.0,46,0.00,,SKC,0.00,VWS V14.01,2013-02-05 22:25:00,
2013-02-05 17:26:00,50.9,30.9,29.93,SW,223,0.0,4.0,46,0.00,,SKC,0.00,VWS V14.01,2013-02-05 22:26:00,
2013-02-05 17:27:00,50.9,30.9,29.93,SW,223,0.0,0.0,46,0.00,,SKC,0.00,VWS V14.01,2013-02-05 22:27:00,
2013-02-05 17:28:00,50.9,30.9,29.93,WSW,246,1.0,3.0,46,0.00,,SKC,0.00,VWS V14.01,2013-02-05 22:28:00,
2013-02-05 17:29:00,50.9,30.9,29.93,WSW,237,1.0,1.0,46,0.00,,SKC,0.00,VWS V14.01,2013-02-05 22:29:00,
2013-02-05 17:30:00,50.8,31.3,29.93,WSW,237,0.0,1.0,47,0.00,,SKC,0.00,VWS V14.01,2013-02-05 22:30:00,
2013-02-05 17:31:00,50.9,31.9,29.93,WSW,237,0.0,0.0,48,0.00,,SKC,0.00,VWS V14.01,2013-02-05 22:31:00,
2013-02-05 17:32:00,50.8,31.8,29.93,WSW,237,0.0,0.0,48,0.00,,SKC,0.00,VWS V14.01,2013-02-05 22:32:00,
2013-02-05 17:33:00,50.7,31.7,29.93,WSW,237,0.0,0.0,48,0.00,,SKC,0.00,VWS V14.01,2013-02-05 22:33:00,
2013-02-05 17:34:00,50.6,31.1,29.93,WSW,237,0.0,0.0,47,0.00,,SKC,0.00,VWS V14.01,2013-02-05 22:34:00,
2013-02-05 17:35:00,50.5,31.0,29.93,WSW,237,1.0,1.0,47,0.00,,SKC,0.00,VWS V14.01,2013-02-05 22:35:00,
2013-02-05 17:36:00,50.4,31.0,29.92,WSW,237,0.0,1.0,47,0.00,,SKC,0.00,VWS V14.01,2013-02-05 22:36:00,
2013-02-05 17:37:00,50.3,30.9,29.93,WSW,237,0.0,0.0,47,0.00,,SKC,0.00,VWS V14.01,2013-02-05 22:37:00,
2013-02-05 17:38:00,50.2,30.8,29.92,WSW,237,0.0,0.0,47,0.00,,SKC,0.00,VWS V14.01,2013-02-05 22:38:00,
2013-02-05 17:39:00,50.1,32.2,29.93,WSW,237,0.0,0.0,50,0.00,,SKC,0.00,VWS V14.01,2013-02-05 22:39:00,
2013-02-05 17:40:00,50.0,32.1,29.93,WSW,237,0.0,0.0,50,0.00,,SKC,0.00,VWS V14.01,2013-02-05 22:40:00,
2013-02-05 17:41:00,49.8,32.4,29.93,WSW,237,0.0,0.0,51,0.00,,SKC,0.00,VWS V14.01,2013-02-05 22:41:00,
2013-02-05 17:42:00,49.7,30.3,29.93,WSW,237,0.0,1.0,47,0.00,,SKC,0.00,VWS V14.01,2013-02-05 22:42:00,
2013-02-05 17:43:00,49.7,30.3,29.92,WSW,237,0.0,0.0,47,0.00,,SKC,0.00,VWS V14.01,2013-02-05 22:43:00,
2013-02-05 17:44:00,49.5,30.6,29.93,WSW,237,2.0,2.0,48,0.00,,SKC,0.00,VWS V14.01,2013-02-05 22:44:00,
2013-02-05 17:45:00,49.4,33.0,29.93,WSW,237,1.0,2.0,53,0.00,,SKC,0.00,VWS V14.01,2013-02-05 22:45:00,
2013-02-05 17:46:00,49.1,32.7,29.93,WSW,237,0.0,1.0,53,0.00,,SKC,0.00,VWS V14.01,2013-02-05 22:46:00,
2013-02-05 17:47:00,48.9,32.1,29.92,WSW,237,1.0,2.0,52,0.00,,SKC,0.00,VWS V14.01,2013-02-05 22:47:00,
2013-02-05 17:48:00,48.7,30.9,29.92,WSW,237,0.0,1.0,50,0.00,,SKC,0.00,VWS V14.01,2013-02-05 22:48:00,
2013-02-05 17:49:00,48.5,30.7,29.92,WSW,237,0.0,0.0,50,0.00,,SKC,0.00,VWS V14.01,2013-02-05 22:49:00,
2013-02-05 17:50:00,48.5,30.7,29.92,WSW,237,2.0,2.0,50,0.00,,SKC,0.00,VWS V14.01,2013-02-05 22:50:00,
2013-02-05 17:51:00,48.3,32.0,29.92,WSW,237,0.0,2.0,53,0.00,,SKC,0.00,VWS V14.01,2013-02-05 22:51:00,
2013-02-05 17:52:00,48.1,31.8,29.92,WSW,237,0.0,0.0,53,0.00,,SKC,0.00,VWS V14.01,2013-02-05 22:52:00,
2013-02-05 17:53:00,47.9,32.1,29.92,WSW,237,0.0,0.0,54,0.00,,SKC,0.00,VWS V14.01,2013-02-05 22:53:00,
2013-02-05 17:54:00,47.8,32.4,29.92,WSW,237,0.0,0.0,55,0.00,,SKC,0.00,VWS V14.01,2013-02-05 22:54:00,
2013-02-05 17:55:00,47.7,31.9,29.92,WSW,237,0.0,0.0,54,0.00,,SKC,0.00,VWS V14.01,2013-02-05 22:55:00,
2013-02-05 17:56:00,47.6,31.8,29.92,WSW,237,0.0,0.0,54,0.00,,SKC,0.00,VWS V14.01,2013-02-05 22:56:00,
2013-02-05 17:57:00,47.4,31.1,29.93,WSW,237,0.0,0.0,53,0.00,,SKC,0.00,VWS V14.01,2013-02-05 22:57:00,
2013-02-05 17:58:00,47.3,31.5,29.92,WSW,237,0.0,2.0,54,0.00,,SKC,0.00,VWS V14.01,2013-02-05 22:58:00,
2013-02-05 17:59:00,47.0,31.2,29.92,WSW,237,0.0,0.0,54,0.00,,SKC,0.00,VWS V14.01,2013-02-05 22:59:00,
2013-02-05 18:00:00,46.9,30.7,29.92,WSW,237,0.0,0.0,53,0.00,,SKC,0.00,VWS V14.01,2013-02-05 23:00:00,
2013-02-05 18:01:00,46.8,30.6,29.92,WSW,237,2.0,2.0,53,0.00,,SKC,0.00,VWS V14.01,2013-02-05 23:01:00,
2013-02-05 18:02:00,46.6,31.3,29.93,WSW,237,0.0,2.0,55,0.00,,SKC,0.00,VWS V14.01,2013-02-05 23:02:00,
2013-02-05 18:03:00,46.5,31.2,29.93,WSW,237,0.0,0.0,55,0.00,,SKC,0.00,VWS V14.01,2013-02-05 23:03:00,
2013-02-05 18:04:00,46.4,29.8,29.93,WSW,237,1.0,2.0,52,0.00,,SKC,0.00,VWS V14.01,2013-02-05 23:04:00,
2013-02-05 18:05:00,46.4,29.8,29.93,WSW,237,3.0,3.0,52,0.00,,SKC,0.00,VWS V14.01,2013-02-05 23:05:00,
2013-02-05 18:06:00,46.4,31.1,29.93,WSW,237,0.0,3.0,55,0.00,,SKC,0.00,VWS V14.01,2013-02-05 23:06:00,
2013-02-05 18:07:00,46.3,30.1,29.93,WSW,237,0.0,0.0,53,0.00,,SKC,0.00,VWS V14.01,2013-02-05 23:07:00,
2013-02-05 18:08:00,46.3,30.6,29.93,WSW,237,0.0,0.0,54,0.00,,SKC,0.00,VWS V14.01,2013-02-05 23:08:00,
2013-02-05 18:09:00,46.2,30.0,29.93,WSW,237,0.0,0.0,53,0.00,,SKC,0.00,VWS V14.01,2013-02-05 23:09:00,
2013-02-05 18:10:00,46.2,31.4,29.93,WSW,237,0.0,0.0,56,0.00,,SKC,0.00,VWS V14.01,2013-02-05 23:10:00,
2013-02-05 18:11:00,46.1,30.4,29.93,WSW,237,0.0,0.0,54,0.00,,SKC,0.00,VWS V14.01,2013-02-05 23:11:00,
2013-02-05 18:12:00,46.0,30.3,29.93,WSW,237,0.0,0.0,54,0.00,,SKC,0.00,VWS V14.01,2013-02-05 23:12:00,
2013-02-05 18:13:00,45.9,30.2,29.93,WSW,237,0.0,1.0,54,0.00,,SKC,0.00,VWS V14.01,2013-02-05 23:13:00,
2013-02-05 18:14:00,46.0,29.8,29.93,WSW,244,0.0,0.0,53,0.00,,SKC,0.00,VWS V14.01,2013-02-05 23:14:00,
2013-02-05 18:15:00,46.0,29.8,29.93,WSW,244,0.0,1.0,53,0.00,,SKC,0.00,VWS V14.01,2013-02-05 23:15:00,
2013-02-05 18:16:00,46.1,29.5,29.93,WSW,244,1.0,1.0,52,0.00,,SKC,0.00,VWS V14.01,2013-02-05 23:16:00,
2013-02-05 18:17:00,46.1,30.4,29.93,WSW,244,0.0,1.0,54,0.00,,SKC,0.00,VWS V14.01,2013-02-05 23:17:00,
2013-02-05 18:18:00,46.2,30.5,29.93,WSW,244,0.0,0.0,54,0.00,,SKC,0.00,VWS V14.01,2013-02-05 23:18:00,
2013-02-05 18:19:00,46.1,30.4,29.93,WSW,244,0.0,1.0,54,0.00,,SKC,0.00,VWS V14.01,2013-02-05 23:19:00,
2013-02-05 18:20:00,46.1,30.4,29.93,WSW,244,1.0,1.0,54,0.00,,SKC,0.00,VWS V14.01,2013-02-05 23:20:00,
2013-02-05 18:21:00,46.0,29.8,29.93,WSW,244,0.0,1.0,53,0.00,,SKC,0.00,VWS V14.01,2013-02-05 23:21:00,
2013-02-05 18:22:00,46.0,29.4,29.93,WSW,244,0.0,1.0,52,0.00,,SKC,0.00,VWS V14.01,2013-02-05 23:22:00,
2013-02-05 18:23:00,46.1,30.4,29.93,WSW,244,0.0,0.0,54,0.00,,SKC,0.00,VWS V14.01,2013-02-05 23:23:00,
2013-02-05 18:24:00,46.0,30.3,29.93,WSW,244,0.0,1.0,54,0.00,,SKC,0.00,VWS V14.01,2013-02-05 23:24:00,
2013-02-05 18:25:00,45.9,31.1,29.93,WSW,244,0.0,1.0,56,0.00,,SKC,0.00,VWS V14.01,2013-02-05 23:25:00,
2013-02-05 18:26:00,45.7,30.9,29.94,WSW,244,0.0,0.0,56,0.00,,SKC,0.00,VWS V14.01,2013-02-05 23:26:00,
2013-02-05 18:27:00,45.6,30.8,29.93,WSW,244,0.0,1.0,56,0.00,,SKC,0.00,VWS V14.01,2013-02-05 23:27:00,
2013-02-05 18:28:00,45.5,30.3,29.94,WSW,248,2.0,2.0,55,0.00,,SKC,0.00,VWS V14.01,2013-02-05 23:28:00,
2013-02-05 18:29:00,45.4,30.2,29.94,WSW,256,0.0,1.0,55,0.00,,SKC,0.00,VWS V14.01,2013-02-05 23:29:00,
2013-02-05 18:30:00,45.3,31.0,29.94,WSW,256,0.0,1.0,57,0.00,,SKC,0.00,VWS V14.01,2013-02-05 23:30:00,
2013-02-05 18:31:00,45.3,30.1,29.94,WSW,256,2.0,2.0,55,0.00,,SKC,0.00,VWS V14.01,2013-02-05 23:31:00,
2013-02-05 18:32:00,45.2,30.0,29.94,WSW,256,1.0,3.0,55,0.00,,SKC,0.00,VWS V14.01,2013-02-05 23:32:00,
2013-02-05 18:33:00,45.2,30.9,29.94,WSW,256,0.0,1.0,57,0.00,,SKC,0.00,VWS V14.01,2013-02-05 23:33:00,
2013-02-05 18:34:00,45.0,30.3,29.94,WSW,256,0.0,0.0,56,0.00,,SKC,0.00,VWS V14.01,2013-02-05 23:34:00,
2013-02-05 18:35:00,45.0,29.8,29.94,WSW,256,2.0,2.0,55,0.00,,SKC,0.00,VWS V14.01,2013-02-05 23:35:00,
2013-02-05 18:36:00,45.0,29.8,29.94,WSW,253,2.0,4.0,55,0.00,,SKC,0.00,VWS V14.01,2013-02-05 23:36:00,
2013-02-05 18:37:00,45.1,29.9,29.94,WSW,253,1.0,3.0,55,0.00,,SKC,0.00,VWS V14.01,2013-02-05 23:37:00,
2013-02-05 18:38:00,45.0,30.7,29.94,WSW,253,1.0,2.0,57,0.00,,SKC,0.00,VWS V14.01,2013-02-05 23:38:00,
2013-02-05 18:39:00,45.0,30.3,29.94,WSW,253,1.0,1.0,56,0.00,,SKC,0.00,VWS V14.01,2013-02-05 23:39:00,
2013-02-05 18:40:00,45.0,30.3,29.94,WSW,253,2.0,2.0,56,0.00,,SKC,0.00,VWS V14.01,2013-02-05 23:40:00,
2013-02-05 18:41:00,45.0,29.4,29.94,WSW,253,1.0,2.0,54,0.00,,SKC,0.00,VWS V14.01,2013-02-05 23:41:00,
2013-02-05 18:42:00,45.0,30.7,29.95,WSW,253,1.0,2.0,57,0.00,,SKC,0.00,VWS V14.01,2013-02-05 23:42:00,
2013-02-05 18:43:00,44.8,30.9,29.95,WSW,253,1.0,2.0,58,0.00,,SKC,0.00,VWS V14.01,2013-02-05 23:43:00,
2013-02-05 18:44:00,44.6,30.3,29.95,WSW,253,0.0,0.0,57,0.00,,SKC,0.00,VWS V14.01,2013-02-05 23:44:00,
2013-02-05 18:45:00,44.6,29.9,29.95,WSW,253,0.0,1.0,56,0.00,,SKC,0.00,VWS V14.01,2013-02-05 23:45:00,
2013-02-05 18:46:00,44.5,29.8,29.95,WSW,253,0.0,1.0,56,0.00,,SKC,0.00,VWS V14.01,2013-02-05 23:46:00,
2013-02-05 18:47:00,44.4,30.1,29.95,WSW,253,0.0,0.0,57,0.00,,SKC,0.00,VWS V14.01,2013-02-05 23:47:00,
2013-02-05 18:48:00,44.4,30.1,29.95,WSW,253,1.0,1.0,57,0.00,,SKC,0.00,VWS V14.01,2013-02-05 23:48:00,
2013-02-05 18:49:00,44.2,30.4,29.95,WSW,253,1.0,1.0,58,0.00,,SKC,0.00,VWS V14.01,2013-02-05 23:49:00,
2013-02-05 18:50:00,44.1,30.7,29.95,WSW,253,0.0,3.0,59,0.00,,SKC,0.00,VWS V14.01,2013-02-05 23:50:00,
2013-02-05 18:51:00,44.0,30.6,29.95,WSW,253,0.0,0.0,59,0.00,,SKC,0.00,VWS V14.01,2013-02-05 23:51:00,
2013-02-05 18:52:00,43.9,30.5,29.95,WSW,253,0.0,1.0,59,0.00,,SKC,0.00,VWS V14.01,2013-02-05 23:52:00,
2013-02-05 18:53:00,43.7,31.1,29.95,WSW,253,0.0,0.0,61,0.00,,SKC,0.00,VWS V14.01,2013-02-05 23:53:00,
2013-02-05 18:54:00,43.4,30.9,29.95,WSW,253,0.0,0.0,61,0.00,,SKC,0.00,VWS V14.01,2013-02-05 23:54:00,
2013-02-05 18:55:00,43.3,30.8,29.95,WSW,253,0.0,0.0,61,0.00,,SKC,0.00,VWS V14.01,2013-02-05 23:55:00,
2013-02-05 18:56:00,43.1,30.6,29.95,WSW,253,0.0,0.0,61,0.00,,SKC,0.00,VWS V14.01,2013-02-05 23:56:00,
2013-02-05 18:57:00,43.0,30.9,29.95,WSW,253,0.0,0.0,62,0.00,,SKC,0.00,VWS V14.01,2013-02-05 23:57:00,
2013-02-05 18:58:00,42.8,30.7,29.95,WSW,253,0.0,1.0,62,0.00,,SKC,0.00,VWS V14.01,2013-02-05 23:58:00,
2013-02-05 18:59:00,42.6,30.5,29.95,WSW,253,0.0,0.0,62,0.00,,SKC,0.00,VWS V14.01,2013-02-05 23:59:00,
2013-02-05 19:00:00,42.5,30.4,29.95,WSW,253,0.0,0.0,62,0.00,,SKC,0.00,VWS V14.01,2013-02-06 00:00:00,
2013-02-05 19:01:00,42.4,30.3,29.95,WSW,253,0.0,0.0,62,0.00,,SKC,0.00,VWS V14.01,2013-02-06 00:01:00,
2013-02-05 19:02:00,42.3,30.6,29.95,WSW,253,0.0,0.0,63,0.00,,SKC,0.00,VWS V14.01,2013-02-06 00:02:00,
2013-02-05 19:03:00,42.1,30.4,29.95,WSW,253,0.0,1.0,63,0.00,,SKC,0.00,VWS V14.01,2013-02-06 00:03:00,
2013-02-05 19:04:00,41.9,30.6,29.95,WSW,253,0.0,0.0,64,0.00,,SKC,0.00,VWS V14.01,2013-02-06 00:04:00,
2013-02-05 19:05:00,41.9,30.6,29.95,WSW,253,0.0,0.0,64,0.00,,SKC,0.00,VWS V14.01,2013-02-06 00:05:00,
2013-02-05 19:06:00,41.7,30.4,29.95,WSW,253,0.0,0.0,64,0.00,,SKC,0.00,VWS V14.01,2013-02-06 00:06:00,
2013-02-05 19:07:00,41.6,30.3,29.95,WSW,253,0.0,0.0,64,0.00,,SKC,0.00,VWS V14.01,2013-02-06 00:07:00,
2013-02-05 19:08:00,41.5,30.2,29.95,WSW,253,0.0,0.0,64,0.00,,SKC,0.00,VWS V14.01,2013-02-06 00:08:00,
2013-02-05 19:09:00,41.3,30.4,29.95,WSW,253,0.0,0.0,65,0.00,,SKC,0.00,VWS V14.01,2013-02-06 00:09:00,
2013-02-05 19:10:00,41.2,30.0,29.95,WSW,253,0.0,0.0,64,0.00,,SKC,0.00,VWS V14.01,2013-02-06 00:10:00,
2013-02-05 19:11:00,41.1,29.9,29.95,WSW,253,0.0,1.0,64,0.00,,SKC,0.00,VWS V14.01,2013-02-06 00:11:00,
2013-02-05 19:12:00,41.0,29.8,29.95,WSW,253,0.0,0.0,64,0.00,,SKC,0.00,VWS V14.01,2013-02-06 00:12:00,
2013-02-05 19:13:00,40.9,29.7,29.95,WSW,253,0.0,0.0,64,0.00,,SKC,0.00,VWS V14.01,2013-02-06 00:13:00,
2013-02-05 19:14:00,40.8,29.6,29.95,WSW,253,0.0,0.0,64,0.00,,SKC,0.00,VWS V14.01,2013-02-06 00:14:00,
2013-02-05 19:15:00,40.8,29.6,29.95,WSW,253,0.0,0.0,64,0.00,,SKC,0.00,VWS V14.01,2013-02-06 00:15:00,
2013-02-05 19:16:00,40.7,29.5,29.96,WSW,253,0.0,0.0,64,0.00,,SKC,0.00,VWS V14.01,2013-02-06 00:16:00,
2013-02-05 19:17:00,40.7,29.9,29.95,WSW,253,0.0,0.0,65,0.00,,SKC,0.00,VWS V14.01,2013-02-06 00:17:00,
2013-02-05 19:18:00,40.6,30.1,29.96,WSW,253,0.0,0.0,66,0.00,,SKC,0.00,VWS V14.01,2013-02-06 00:18:00,
2013-02-05 19:19:00,40.6,30.1,29.96,WSW,253,1.0,1.0,66,0.00,,SKC,0.00,VWS V14.01,2013-02-06 00:19:00,
2013-02-05 19:20:00,40.5,29.7,29.96,WSW,253,1.0,1.0,65,0.00,,SKC,0.00,VWS V14.01,2013-02-06 00:20:00,
2013-02-05 19:21:00,40.5,30.0,29.96,WSW,253,2.0,2.0,66,0.00,,SKC,0.00,VWS V14.01,2013-02-06 00:21:00,
2013-02-05 19:22:00,40.4,30.0,29.96,WSW,253,0.0,2.0,66,0.00,,SKC,0.00,VWS V14.01,2013-02-06 00:22:00,
2013-02-05 19:23:00,40.4,29.6,29.96,WSW,253,0.0,0.0,65,0.00,,SKC,0.00,VWS V14.01,2013-02-06 00:23:00,
2013-02-05 19:24:00,40.3,29.5,29.96,WSW,253,1.0,1.0,65,0.00,,SKC,0.00,VWS V14.01,2013-02-06 00:24:00,
2013-02-05 19:25:00,40.2,29.8,29.96,WSW,253,0.0,1.0,66,0.00,,SKC,0.00,VWS V14.01,2013-02-06 00:25:00,
2013-02-05 19:26:00,40.2,29.8,29.96,WSW,253,0.0,0.0,66,0.00,,SKC,0.00,VWS V14.01,2013-02-06 00:26:00,
2013-02-05 19:27:00,40.1,29.7,29.96,WSW,253,0.0,0.0,66,0.00,,SKC,0.00,VWS V14.01,2013-02-06 00:27:00,
2013-02-05 19:28:00,40.0,29.6,29.96,WSW,253,0.0,0.0,66,0.00,,SKC,0.00,VWS V14.01,2013-02-06 00:28:00,
2013-02-05 19:29:00,40.0,29.6,29.96,WSW,253,0.0,0.0,66,0.00,,SKC,0.00,VWS V14.01,2013-02-06 00:29:00,
2013-02-05 19:30:00,39.9,29.9,29.96,WSW,253,0.0,0.0,67,0.00,,SKC,0.00,VWS V14.01,2013-02-06 00:30:00,
2013-02-05 19:31:00,39.9,29.9,29.96,WSW,253,0.0,0.0,67,0.00,,SKC,0.00,VWS V14.01,2013-02-06 00:31:00,
2013-02-05 19:32:00,39.8,29.8,29.96,WSW,253,0.0,0.0,67,0.00,,SKC,0.00,VWS V14.01,2013-02-06 00:32:00,
2013-02-05 19:33:00,39.8,29.8,29.96,WSW,253,1.0,1.0,67,0.00,,SKC,0.00,VWS V14.01,2013-02-06 00:33:00,
2013-02-05 19:34:00,39.7,29.7,29.96,WSW,253,0.0,1.0,67,0.00,,SKC,0.00,VWS V14.01,2013-02-06 00:34:00,
2013-02-05 19:35:00,39.7,30.0,29.96,WSW,253,0.0,1.0,68,0.00,,SKC,0.00,VWS V14.01,2013-02-06 00:35:00,
2013-02-05 19:36:00,39.6,29.9,29.96,WSW,253,0.0,0.0,68,0.00,,SKC,0.00,VWS V14.01,2013-02-06 00:36:00,
2013-02-05 19:37:00,39.5,29.8,29.96,WSW,253,0.0,1.0,68,0.00,,SKC,0.00,VWS V14.01,2013-02-06 00:37:00,
2013-02-05 19:38:00,39.5,29.8,29.96,WSW,253,0.0,0.0,68,0.00,,SKC,0.00,VWS V14.01,2013-02-06 00:38:00,
2013-02-05 19:39:00,39.4,29.7,29.96,WSW,253,0.0,0.0,68,0.00,,SKC,0.00,VWS V14.01,2013-02-06 00:39:00,
2013-02-05 19:40:00,39.4,29.7,29.96,WSW,253,0.0,0.0,68,0.00,,SKC,0.00,VWS V14.01,2013-02-06 00:40:00,
2013-02-05 19:41:00,39.3,30.0,29.96,WSW,253,0.0,1.0,69,0.00,,SKC,0.00,VWS V14.01,2013-02-06 00:41:00,
2013-02-05 19:42:00,39.3,30.0,29.96,WSW,253,0.0,1.0,69,0.00,,SKC,0.00,VWS V14.01,2013-02-06 00:42:00,
2013-02-05 19:43:00,39.2,29.9,29.96,WSW,253,0.0,0.0,69,0.00,,SKC,0.00,VWS V14.01,2013-02-06 00:43:00,
2013-02-05 19:44:00,39.1,29.8,29.96,WSW,253,0.0,0.0,69,0.00,,SKC,0.00,VWS V14.01,2013-02-06 00:44:00,
2013-02-05 19:45:00,39.1,29.8,29.96,WSW,253,0.0,0.0,69,0.00,,SKC,0.00,VWS V14.01,2013-02-06 00:45:00,
2013-02-05 19:46:00,39.1,30.2,29.96,WSW,253,1.0,1.0,70,0.00,,SKC,0.00,VWS V14.01,2013-02-06 00:46:00,
2013-02-05 19:47:00,39.0,30.1,29.96,WSW,253,0.0,1.0,70,0.00,,SKC,0.00,VWS V14.01,2013-02-06 00:47:00,
2013-02-05 19:48:00,38.9,30.0,29.96,WSW,253,0.0,0.0,70,0.00,,SKC,0.00,VWS V14.01,2013-02-06 00:48:00,
2013-02-05 19:49:00,38.9,29.6,29.96,WSW,253,1.0,1.0,69,0.00,,SKC,0.00,VWS V14.01,2013-02-06 00:49:00,
2013-02-05 19:50:00,38.9,29.6,29.96,WSW,253,0.0,1.0,69,0.00,,SKC,0.00,VWS V14.01,2013-02-06 00:50:00,
2013-02-05 19:51:00,38.8,29.9,29.96,WSW,253,0.0,0.0,70,0.00,,SKC,0.00,VWS V14.01,2013-02-06 00:51:00,
2013-02-05 19:52:00,38.8,29.5,29.96,WSW,253,3.0,3.0,69,0.00,,SKC,0.00,VWS V14.01,2013-02-06 00:52:00,
2013-02-05 19:53:00,38.8,29.5,29.96,WSW,253,0.0,3.0,69,0.00,,SKC,0.00,VWS V14.01,2013-02-06 00:53:00,
2013-02-05 19:54:00,38.8,29.2,29.96,WSW,253,0.0,0.0,68,0.00,,SKC,0.00,VWS V14.01,2013-02-06 00:54:00,
2013-02-05 19:55:00,38.9,29.6,29.96,WSW,253,1.0,1.0,69,0.00,,SKC,0.00,VWS V14.01,2013-02-06 00:55:00,
2013-02-05 19:56:00,38.8,29.5,29.96,WSW,253,0.0,1.0,69,0.00,,SKC,0.00,VWS V14.01,2013-02-06 00:56:00,
2013-02-05 19:57:00,38.8,29.9,29.96,WSW,253,1.0,2.0,70,0.00,,SKC,0.00,VWS V14.01,2013-02-06 00:57:00,
2013-02-05 19:58:00,38.8,29.9,29.96,WSW,253,0.0,2.0,70,0.00,,SKC,0.00,VWS V14.01,2013-02-06 00:58:00,
2013-02-05 19:59:00,38.8,29.5,29.96,WSW,253,0.0,0.0,69,0.00,,SKC,0.00,VWS V14.01,2013-02-06 00:59:00,
2013-02-05 20:00:00,38.8,29.9,29.96,WSW,253,0.0,1.0,70,0.00,,SKC,0.00,VWS V14.01,2013-02-06 01:00:00,
2013-02-05 20:01:00,38.8,29.5,29.96,WSW,253,2.0,2.0,69,0.00,,SKC,0.00,VWS V14.01,2013-02-06 01:01:00,
2013-02-05 20:02:00,38.8,29.5,29.96,WSW,253,1.0,2.0,69,0.00,,SKC,0.00,VWS V14.01,2013-02-06 01:02:00,
2013-02-05 20:03:00,38.8,29.9,29.97,WSW,253,0.0,1.0,70,0.00,,SKC,0.00,VWS V14.01,2013-02-06 01:03:00,
2013-02-05 20:04:00,38.8,29.9,29.97,WSW,253,0.0,0.0,70,0.00,,SKC,0.00,VWS V14.01,2013-02-06 01:04:00,
2013-02-05 20:05:00,38.8,29.5,29.97,WSW,253,0.0,1.0,69,0.00,,SKC,0.00,VWS V14.01,2013-02-06 01:05:00,
2013-02-05 20:06:00,38.8,29.5,29.97,WSW,253,0.0,0.0,69,0.00,,SKC,0.00,VWS V14.01,2013-02-06 01:06:00,
2013-02-05 20:07:00,38.8,29.5,29.97,WSW,253,0.0,1.0,69,0.00,,SKC,0.00,VWS V14.01,2013-02-06 01:07:00,
2013-02-05 20:08:00,38.8,29.9,29.97,WSW,253,0.0,1.0,70,0.00,,SKC,0.00,VWS V14.01,2013-02-06 01:08:00,
2013-02-05 20:09:00,38.8,29.9,29.97,WSW,253,0.0,0.0,70,0.00,,SKC,0.00,VWS V14.01,2013-02-06 01:09:00,
2013-02-05 20:10:00,38.8,29.9,29.97,WSW,253,0.0,0.0,70,0.00,,SKC,0.00,VWS V14.01,2013-02-06 01:10:00,
2013-02-05 20:11:00,38.7,29.8,29.97,WSW,253,0.0,1.0,70,0.00,,SKC,0.00,VWS V14.01,2013-02-06 01:11:00,
2013-02-05 20:12:00,38.7,29.8,29.97,WSW,253,0.0,0.0,70,0.00,,SKC,0.00,VWS V14.01,2013-02-06 01:12:00,
2013-02-05 20:13:00,38.7,29.8,29.97,WSW,253,1.0,2.0,70,0.00,,SKC,0.00,VWS V14.01,2013-02-06 01:13:00,
2013-02-05 20:14:00,38.6,30.0,29.97,WSW,253,0.0,1.0,71,0.00,,SKC,0.00,VWS V14.01,2013-02-06 01:14:00,
2013-02-05 20:15:00,38.6,30.0,29.97,WSW,253,0.0,1.0,71,0.00,,SKC,0.00,VWS V14.01,2013-02-06 01:15:00,
2013-02-05 20:16:00,38.6,30.0,29.97,WSW,253,0.0,1.0,71,0.00,,SKC,0.00,VWS V14.01,2013-02-06 01:16:00,
2013-02-05 20:17:00,38.5,29.9,29.97,WSW,253,1.0,2.0,71,0.00,,SKC,0.00,VWS V14.01,2013-02-06 01:17:00,
2013-02-05 20:18:00,38.5,29.9,29.97,WSW,253,1.0,1.0,71,0.00,,SKC,0.00,VWS V14.01,2013-02-06 01:18:00,
2013-02-05 20:19:00,38.4,29.8,29.97,WSW,253,0.0,1.0,71,0.00,,SKC,0.00,VWS V14.01,2013-02-06 01:19:00,
2013-02-05 20:20:00,38.4,29.8,29.97,WSW,253,1.0,1.0,71,0.00,,SKC,0.00,VWS V14.01,2013-02-06 01:20:00,
2013-02-05 20:21:00,38.3,30.1,29.97,WSW,253,1.0,2.0,72,0.00,,SKC,0.00,VWS V14.01,2013-02-06 01:21:00,
2013-02-05 20:22:00,38.3,29.7,29.97,WSW,253,2.0,2.0,71,0.00,,SKC,0.00,VWS V14.01,2013-02-06 01:22:00,
2013-02-05 20:23:00,38.3,30.1,29.97,WSW,253,0.0,2.0,72,0.00,,SKC,0.00,VWS V14.01,2013-02-06 01:23:00,
2013-02-05 20:24:00,38.3,30.1,29.98,WSW,253,1.0,2.0,72,0.00,,SKC,0.00,VWS V14.01,2013-02-06 01:24:00,
2013-02-05 20:25:00,38.3,30.1,29.98,WSW,253,0.0,2.0,72,0.00,,SKC,0.00,VWS V14.01,2013-02-06 01:25:00,
2013-02-05 20:26:00,38.3,30.1,29.97,WSW,253,0.0,1.0,72,0.00,,SKC,0.00,VWS V14.01,2013-02-06 01:26:00,
2013-02-05 20:27:00,38.3,30.1,29.97,WSW,253,0.0,0.0,72,0.00,,SKC,0.00,VWS V14.01,2013-02-06 01:27:00,
2013-02-05 20:28:00,38.3,29.7,29.97,WSW,253,1.0,1.0,71,0.00,,SKC,0.00,VWS V14.01,2013-02-06 01:28:00,
2013-02-05 20:29:00,38.3,30.1,29.97,WSW,253,1.0,2.0,72,0.00,,SKC,0.00,VWS V14.01,2013-02-06 01:29:00,
2013-02-05 20:30:00,38.2,30.0,29.97,WSW,253,0.0,2.0,72,0.00,,SKC,0.00,VWS V14.01,2013-02-06 01:30:00,
2013-02-05 20:31:00,38.2,30.0,29.97,WSW,253,1.0,1.0,72,0.00,,SKC,0.00,VWS V14.01,2013-02-06 01:31:00,
2013-02-05 20:32:00,38.2,30.0,29.97,WSW,253,2.0,2.0,72,0.00,,SKC,0.00,VWS V14.01,2013-02-06 01:32:00,
2013-02-05 20:33:00,38.2,30.0,29.97,WSW,253,1.0,2.0,72,0.00,,SKC,0.00,VWS V14.01,2013-02-06 01:33:00,
2013-02-05 20:34:00,38.3,30.1,29.97,WSW,253,0.0,0.0,72,0.00,,SKC,0.00,VWS V14.01,2013-02-06 01:34:00,
2013-02-05 20:35:00,38.3,31.4,29.97,WSW,253,0.0,0.0,76,0.00,,SKC,0.00,VWS V14.01,2013-02-06 01:35:00,
2013-02-05 20:36:00,38.3,30.1,29.97,WSW,253,0.0,0.0,72,0.00,,SKC,0.00,VWS V14.01,2013-02-06 01:36:00,
2013-02-05 20:37:00,38.4,30.2,29.97,WSW,253,0.0,0.0,72,0.00,,SKC,0.00,VWS V14.01,2013-02-06 01:37:00,
2013-02-05 20:38:00,38.4,30.2,29.97,WSW,253,1.0,1.0,72,0.00,,SKC,0.00,VWS V14.01,2013-02-06 01:38:00,
2013-02-05 20:39:00,38.4,30.5,29.97,WSW,253,0.0,0.0,73,0.00,,SKC,0.00,VWS V14.01,2013-02-06 01:39:00,
2013-02-05 20:40:00,38.4,30.5,29.97,WSW,253,2.0,2.0,73,0.00,,SKC,0.00,VWS V14.01,2013-02-06 01:40:00,
2013-02-05 20:41:00,38.4,30.5,29.97,WSW,253,0.0,2.0,73,0.00,,SKC,0.00,VWS V14.01,2013-02-06 01:41:00,
2013-02-05 20:42:00,38.5,30.3,29.97,WSW,253,0.0,0.0,72,0.00,,SKC,0.00,VWS V14.01,2013-02-06 01:42:00,
2013-02-05 20:43:00,38.5,30.6,29.97,WSW,253,1.0,3.0,73,0.00,,SKC,0.00,VWS V14.01,2013-02-06 01:43:00,
2013-02-05 20:44:00,38.7,30.8,29.97,WSW,253,0.0,0.0,73,0.00,,SKC,0.00,VWS V14.01,2013-02-06 01:44:00,
2013-02-05 20:45:00,38.8,30.9,29.97,WSW,253,3.0,3.0,73,0.00,,SKC,0.00,VWS V14.01,2013-02-06 01:45:00,
2013-02-05 20:46:00,38.9,30.7,29.97,WSW,253,2.0,3.0,72,0.00,,SKC,0.00,VWS V14.01,2013-02-06 01:46:00,
2013-02-05 20:47:00,38.9,30.7,29.97,WSW,253,0.0,2.0,72,0.00,,SKC,0.00,VWS V14.01,2013-02-06 01:47:00,
2013-02-05 20:57:00,39.3,30.7,29.98,WSW,248,0.0,2.0,71,0.00,,SKC,0.00,VWS V14.01,2013-02-06 01:57:00,
2013-02-05 21:02:00,40.0,31.0,29.98,WSW,253,5.0,5.0,70,0.00,,SKC,0.00,VWS V14.01,2013-02-06 02:02:00,
2013-02-05 21:07:00,41.1,31.7,29.98,WSW,253,3.0,4.0,69,0.00,,SKC,0.00,VWS V14.01,2013-02-06 02:07:00,
2013-02-05 21:12:00,41.2,31.8,29.98,West,266,1.0,4.0,69,0.00,,SKC,0.00,VWS V14.01,2013-02-06 02:12:00,
2013-02-05 21:17:00,40.5,31.5,29.98,West,265,1.0,2.0,70,0.00,,SKC,0.00,VWS V14.01,2013-02-06 02:17:00,
2013-02-05 21:22:00,39.7,31.1,29.98,West,265,0.0,0.0,71,0.00,,SKC,0.00,VWS V14.01,2013-02-06 02:22:00,
2013-02-05 21:27:00,39.0,31.1,29.98,West,266,0.0,0.0,73,0.00,,SKC,0.00,VWS V14.01,2013-02-06 02:27:00,
2013-02-05 21:32:00,38.5,31.0,29.99,West,265,2.0,2.0,74,0.00,,SKC,0.00,VWS V14.01,2013-02-06 02:32:00,
2013-02-05 21:37:00,38.2,31.0,29.99,West,265,2.0,3.0,75,0.00,,SKC,0.00,VWS V14.01,2013-02-06 02:37:00,
2013-02-05 21:42:00,38.7,31.5,29.99,West,265,2.0,2.0,75,0.00,,SKC,0.00,VWS V14.01,2013-02-06 02:42:00,
2013-02-05 21:47:00,38.9,31.3,30.00,West,265,0.0,1.0,74,0.00,,SKC,0.00,VWS V14.01,2013-02-06 02:47:00,
2013-02-05 21:52:00,38.5,31.0,29.99,West,265,0.0,0.0,74,0.00,,SKC,0.00,VWS V14.01,2013-02-06 02:52:00,
2013-02-05 21:57:00,38.1,30.9,29.99,West,265,2.0,3.0,75,0.00,,SKC,0.00,VWS V14.01,2013-02-06 02:57:00,
2013-02-05 22:02:00,38.0,31.1,29.99,West,265,0.0,0.0,76,0.00,,SKC,0.00,VWS V14.01,2013-02-06 03:02:00,
2013-02-05 22:07:00,37.8,30.9,30.00,West,265,0.0,0.0,76,0.00,,SKC,0.00,VWS V14.01,2013-02-06 03:07:00,
2013-02-05 22:12:00,37.5,30.6,30.00,West,265,0.0,0.0,76,0.00,,SKC,0.00,VWS V14.01,2013-02-06 03:12:00,
2013-02-05 22:17:00,37.1,30.6,30.00,West,265,0.0,0.0,77,0.00,,SKC,0.00,VWS V14.01,2013-02-06 03:17:00,
2013-02-05 22:22:00,36.9,30.7,30.00,West,265,0.0,2.0,78,0.00,,SKC,0.00,VWS V14.01,2013-02-06 03:22:00,
2013-02-05 22:27:00,36.9,30.7,30.00,West,265,0.0,0.0,78,0.00,,SKC,0.00,VWS V14.01,2013-02-06 03:27:00,
2013-02-05 22:32:00,37.0,30.8,30.00,West,265,1.0,1.0,78,0.00,,SKC,0.00,VWS V14.01,2013-02-06 03:32:00,
2013-02-05 22:37:00,36.9,30.4,30.00,West,265,0.0,0.0,77,0.00,,SKC,0.00,VWS V14.01,2013-02-06 03:37:00,
2013-02-05 22:42:00,37.0,30.8,30.00,West,265,0.0,2.0,78,0.00,,SKC,0.00,VWS V14.01,2013-02-06 03:42:00,
2013-02-05 22:47:00,36.8,30.6,30.00,West,265,0.0,0.0,78,0.00,,SKC,0.00,VWS V14.01,2013-02-06 03:47:00,
2013-02-05 22:52:00,36.8,30.6,30.00,West,265,0.0,1.0,78,0.00,,SKC,0.00,VWS V14.01,2013-02-06 03:52:00,
2013-02-05 22:57:00,36.4,30.2,30.00,West,265,0.0,2.0,78,0.00,,SKC,0.00,VWS V14.01,2013-02-06 03:57:00,
2013-02-05 23:02:00,36.2,30.0,30.00,West,265,0.0,0.0,78,0.00,,SKC,0.00,VWS V14.01,2013-02-06 04:02:00,
2013-02-05 23:07:00,36.3,30.7,30.00,West,265,0.0,0.0,80,0.00,,SKC,0.00,VWS V14.01,2013-02-06 04:07:00,
2013-02-05 23:12:00,36.5,30.9,30.00,West,265,1.0,2.0,80,0.00,,SKC,0.00,VWS V14.01,2013-02-06 04:12:00,
2013-02-05 23:17:00,36.9,31.0,30.00,West,265,0.0,0.0,79,0.00,,SKC,0.00,VWS V14.01,2013-02-06 04:17:00,
2013-02-05 23:22:00,37.2,31.3,30.00,West,265,1.0,2.0,79,0.00,,SKC,0.00,VWS V14.01,2013-02-06 04:22:00,
2013-02-05 23:27:00,37.1,30.9,30.00,West,265,0.0,0.0,78,0.00,,SKC,0.00,VWS V14.01,2013-02-06 04:27:00,
2013-02-05 23:32:00,37.0,31.1,30.00,West,265,1.0,2.0,79,0.00,,SKC,0.00,VWS V14.01,2013-02-06 04:32:00,
2013-02-05 23:37:00,37.2,31.6,30.00,West,265,1.0,2.0,80,0.00,,SKC,0.00,VWS V14.01,2013-02-06 04:37:00,
2013-02-05 23:42:00,37.5,31.6,30.00,West,265,2.0,2.0,79,0.00,,SKC,0.00,VWS V14.01,2013-02-06 04:42:00,
2013-02-05 23:47:00,37.6,31.4,30.00,West,265,1.0,2.0,78,0.00,,SKC,0.00,VWS V14.01,2013-02-06 04:47:00,
2013-02-05 23:52:00,37.6,31.7,30.00,West,265,1.0,2.0,79,0.00,,SKC,0.00,VWS V14.01,2013-02-06 04:52:00,
2013-02-05 23:57:00,37.9,31.7,30.00,West,265,3.0,3.0,78,0.00,,SKC,0.00,VWS V14.01,2013-02-06 04:57:00,